<?xml version="1.0" encoding="UTF-8" standalone="no" ?>
<gpx xmlns="http://www.topografix.com/GPX/1/1" xmlns:xsi="http://www.w3.org/2001/XMLSchema-instance" xsi:schemaLocation="http://www.topografix.com/GPX/1/1 http://www.topografix.com/GPX/1/1/gpx.xsd" version="1.1" creator="VisuGPX - https://www.visugpx.com">
  <metadata>
    <name>13172082-Estables-Montfaucon</name>
  </metadata>
  <trk>
    <name><![CDATA[13172082-Estables-Montfaucon]]></name>
    <trkseg>
      <trkpt lat="44.90416" lon="4.15438">
        <ele>1344</ele>
        <time>2021-06-03T05:59:29Z</time>
      </trkpt>
      <trkpt lat="44.90418" lon="4.15448">
        <ele>1345</ele>
        <time>2021-06-03T05:59:30Z</time>
      </trkpt>
      <trkpt lat="44.9042" lon="4.15493">
        <ele>1346</ele>
        <time>2021-06-03T05:59:36Z</time>
      </trkpt>
      <trkpt lat="44.90416" lon="4.1551">
        <ele>1346</ele>
        <time>2021-06-03T05:59:38Z</time>
      </trkpt>
      <trkpt lat="44.90402" lon="4.15549">
        <ele>1345</ele>
        <time>2021-06-03T05:59:44Z</time>
      </trkpt>
      <trkpt lat="44.90386" lon="4.1558">
        <ele>1345</ele>
        <time>2021-06-03T05:59:49Z</time>
      </trkpt>
      <trkpt lat="44.90376" lon="4.15594">
        <ele>1345</ele>
        <time>2021-06-03T05:59:51Z</time>
      </trkpt>
      <trkpt lat="44.90372" lon="4.1561">
        <ele>1346</ele>
        <time>2021-06-03T05:59:53Z</time>
      </trkpt>
      <trkpt lat="44.90369" lon="4.15708">
        <ele>1350</ele>
        <time>2021-06-03T06:00:06Z</time>
      </trkpt>
      <trkpt lat="44.90371" lon="4.15726">
        <ele>1351</ele>
        <time>2021-06-03T06:00:08Z</time>
      </trkpt>
      <trkpt lat="44.90385" lon="4.15754">
        <ele>1353</ele>
        <time>2021-06-03T06:00:12Z</time>
      </trkpt>
      <trkpt lat="44.9039" lon="4.15769">
        <ele>1354</ele>
        <time>2021-06-03T06:00:14Z</time>
      </trkpt>
      <trkpt lat="44.9039" lon="4.15786">
        <ele>1354</ele>
        <time>2021-06-03T06:00:16Z</time>
      </trkpt>
      <trkpt lat="44.9038" lon="4.15852">
        <ele>1354</ele>
        <time>2021-06-03T06:00:25Z</time>
      </trkpt>
      <trkpt lat="44.90371" lon="4.15955">
        <ele>1355</ele>
        <time>2021-06-03T06:00:38Z</time>
      </trkpt>
      <trkpt lat="44.90372" lon="4.15971">
        <ele>1355</ele>
        <time>2021-06-03T06:00:40Z</time>
      </trkpt>
      <trkpt lat="44.90376" lon="4.15986">
        <ele>1356</ele>
        <time>2021-06-03T06:00:42Z</time>
      </trkpt>
      <trkpt lat="44.90388" lon="4.16005">
        <ele>1358</ele>
        <time>2021-06-03T06:00:45Z</time>
      </trkpt>
      <trkpt lat="44.904" lon="4.16011">
        <ele>1359</ele>
        <time>2021-06-03T06:00:48Z</time>
      </trkpt>
      <trkpt lat="44.90415" lon="4.1601">
        <ele>1361</ele>
        <time>2021-06-03T06:00:50Z</time>
      </trkpt>
      <trkpt lat="44.90424" lon="4.16006">
        <ele>1362</ele>
        <time>2021-06-03T06:00:52Z</time>
      </trkpt>
      <trkpt lat="44.90433" lon="4.15997">
        <ele>1362</ele>
        <time>2021-06-03T06:00:54Z</time>
      </trkpt>
      <trkpt lat="44.90466" lon="4.15944">
        <ele>1363</ele>
        <time>2021-06-03T06:01:03Z</time>
      </trkpt>
      <trkpt lat="44.90483" lon="4.15927">
        <ele>1364</ele>
        <time>2021-06-03T06:01:06Z</time>
      </trkpt>
      <trkpt lat="44.90492" lon="4.15924">
        <ele>1365</ele>
        <time>2021-06-03T06:01:08Z</time>
      </trkpt>
      <trkpt lat="44.90508" lon="4.15931">
        <ele>1366</ele>
        <time>2021-06-03T06:01:11Z</time>
      </trkpt>
      <trkpt lat="44.90518" lon="4.1594">
        <ele>1368</ele>
        <time>2021-06-03T06:01:13Z</time>
      </trkpt>
      <trkpt lat="44.90524" lon="4.15949">
        <ele>1369</ele>
        <time>2021-06-03T06:01:15Z</time>
      </trkpt>
      <trkpt lat="44.90528" lon="4.1596">
        <ele>1370</ele>
        <time>2021-06-03T06:01:16Z</time>
      </trkpt>
      <trkpt lat="44.90529" lon="4.15973">
        <ele>1371</ele>
        <time>2021-06-03T06:01:18Z</time>
      </trkpt>
      <trkpt lat="44.90521" lon="4.16106">
        <ele>1377</ele>
        <time>2021-06-03T06:01:35Z</time>
      </trkpt>
      <trkpt lat="44.90521" lon="4.16143">
        <ele>1377</ele>
        <time>2021-06-03T06:01:39Z</time>
      </trkpt>
      <trkpt lat="44.90522" lon="4.1625">
        <ele>1381</ele>
        <time>2021-06-03T06:01:53Z</time>
      </trkpt>
      <trkpt lat="44.90522" lon="4.16276">
        <ele>1383</ele>
        <time>2021-06-03T06:01:56Z</time>
      </trkpt>
      <trkpt lat="44.9052" lon="4.16296">
        <ele>1384</ele>
        <time>2021-06-03T06:01:59Z</time>
      </trkpt>
      <trkpt lat="44.90442" lon="4.16656">
        <ele>1407</ele>
        <time>2021-06-03T06:02:46Z</time>
      </trkpt>
      <trkpt lat="44.9043" lon="4.16705">
        <ele>1409</ele>
        <time>2021-06-03T06:02:53Z</time>
      </trkpt>
      <trkpt lat="44.90225" lon="4.17437">
        <ele>1450</ele>
        <time>2021-06-03T06:04:32Z</time>
      </trkpt>
      <trkpt lat="44.90239" lon="4.17443">
        <ele>1451</ele>
        <time>2021-06-03T06:04:35Z</time>
      </trkpt>
      <trkpt lat="44.90254" lon="4.17447">
        <ele>1453</ele>
        <time>2021-06-03T06:04:37Z</time>
      </trkpt>
      <trkpt lat="44.90278" lon="4.17444">
        <ele>1454</ele>
        <time>2021-06-03T06:04:42Z</time>
      </trkpt>
      <trkpt lat="44.90297" lon="4.17439">
        <ele>1455</ele>
        <time>2021-06-03T06:04:45Z</time>
      </trkpt>
      <trkpt lat="44.9038" lon="4.17389">
        <ele>1457</ele>
        <time>2021-06-03T06:05:01Z</time>
      </trkpt>
      <trkpt lat="44.90426" lon="4.17366">
        <ele>1460</ele>
        <time>2021-06-03T06:05:10Z</time>
      </trkpt>
      <trkpt lat="44.90525" lon="4.17323">
        <ele>1464</ele>
        <time>2021-06-03T06:05:28Z</time>
      </trkpt>
      <trkpt lat="44.90634" lon="4.173">
        <ele>1470</ele>
        <time>2021-06-03T06:05:48Z</time>
      </trkpt>
      <trkpt lat="44.90658" lon="4.173">
        <ele>1471</ele>
        <time>2021-06-03T06:05:52Z</time>
      </trkpt>
      <trkpt lat="44.90673" lon="4.17304">
        <ele>1472</ele>
        <time>2021-06-03T06:05:55Z</time>
      </trkpt>
      <trkpt lat="44.90696" lon="4.17316">
        <ele>1474</ele>
        <time>2021-06-03T06:05:59Z</time>
      </trkpt>
      <trkpt lat="44.90734" lon="4.1734">
        <ele>1477</ele>
        <time>2021-06-03T06:06:07Z</time>
      </trkpt>
      <trkpt lat="44.90748" lon="4.17344">
        <ele>1478</ele>
        <time>2021-06-03T06:06:09Z</time>
      </trkpt>
      <trkpt lat="44.90765" lon="4.17344">
        <ele>1479</ele>
        <time>2021-06-03T06:06:12Z</time>
      </trkpt>
      <trkpt lat="44.90783" lon="4.17339">
        <ele>1480</ele>
        <time>2021-06-03T06:06:15Z</time>
      </trkpt>
      <trkpt lat="44.908" lon="4.17328">
        <ele>1480</ele>
        <time>2021-06-03T06:06:19Z</time>
      </trkpt>
      <trkpt lat="44.90882" lon="4.17259">
        <ele>1483</ele>
        <time>2021-06-03T06:06:36Z</time>
      </trkpt>
      <trkpt lat="44.90899" lon="4.17249">
        <ele>1484</ele>
        <time>2021-06-03T06:06:39Z</time>
      </trkpt>
      <trkpt lat="44.91091" lon="4.17191">
        <ele>1495</ele>
        <time>2021-06-03T06:07:14Z</time>
      </trkpt>
      <trkpt lat="44.91112" lon="4.17181">
        <ele>1495</ele>
        <time>2021-06-03T06:07:18Z</time>
      </trkpt>
      <trkpt lat="44.91134" lon="4.17164">
        <ele>1496</ele>
        <time>2021-06-03T06:07:22Z</time>
      </trkpt>
      <trkpt lat="44.91168" lon="4.17128">
        <ele>1498</ele>
        <time>2021-06-03T06:07:30Z</time>
      </trkpt>
      <trkpt lat="44.91223" lon="4.17058">
        <ele>1503</ele>
        <time>2021-06-03T06:07:43Z</time>
      </trkpt>
      <trkpt lat="44.91236" lon="4.17037">
        <ele>1504</ele>
        <time>2021-06-03T06:07:47Z</time>
      </trkpt>
      <trkpt lat="44.91266" lon="4.16939">
        <ele>1507</ele>
        <time>2021-06-03T06:08:00Z</time>
      </trkpt>
      <trkpt lat="44.91276" lon="4.16919">
        <ele>1508</ele>
        <time>2021-06-03T06:08:03Z</time>
      </trkpt>
      <trkpt lat="44.91285" lon="4.16907">
        <ele>1509</ele>
        <time>2021-06-03T06:08:05Z</time>
      </trkpt>
      <trkpt lat="44.91308" lon="4.16891">
        <ele>1512</ele>
        <time>2021-06-03T06:08:10Z</time>
      </trkpt>
      <trkpt lat="44.91318" lon="4.1689">
        <ele>1513</ele>
        <time>2021-06-03T06:08:12Z</time>
      </trkpt>
      <trkpt lat="44.91322" lon="4.16911">
        <ele>1514</ele>
        <time>2021-06-03T06:08:14Z</time>
      </trkpt>
      <trkpt lat="44.91329" lon="4.16938">
        <ele>1515</ele>
        <time>2021-06-03T06:08:18Z</time>
      </trkpt>
      <trkpt lat="44.9134" lon="4.1696">
        <ele>1517</ele>
        <time>2021-06-03T06:08:21Z</time>
      </trkpt>
      <trkpt lat="44.9138" lon="4.17029">
        <ele>1524</ele>
        <time>2021-06-03T06:08:33Z</time>
      </trkpt>
      <trkpt lat="44.91394" lon="4.17063">
        <ele>1526</ele>
        <time>2021-06-03T06:08:38Z</time>
      </trkpt>
      <trkpt lat="44.91411" lon="4.17118">
        <ele>1528</ele>
        <time>2021-06-03T06:08:45Z</time>
      </trkpt>
      <trkpt lat="44.91478" lon="4.17362">
        <ele>1544</ele>
        <time>2021-06-03T06:09:18Z</time>
      </trkpt>
      <trkpt lat="44.91491" lon="4.1742">
        <ele>1546</ele>
        <time>2021-06-03T06:09:26Z</time>
      </trkpt>
      <trkpt lat="44.91535" lon="4.1755">
        <ele>1551</ele>
        <time>2021-06-03T06:09:44Z</time>
      </trkpt>
      <trkpt lat="44.91544" lon="4.1758">
        <ele>1552</ele>
        <time>2021-06-03T06:09:48Z</time>
      </trkpt>
      <trkpt lat="44.91551" lon="4.1761">
        <ele>1554</ele>
        <time>2021-06-03T06:09:52Z</time>
      </trkpt>
      <trkpt lat="44.91567" lon="4.17707">
        <ele>1561</ele>
        <time>2021-06-03T06:10:05Z</time>
      </trkpt>
      <trkpt lat="44.91596" lon="4.17836">
        <ele>1568</ele>
        <time>2021-06-03T06:10:22Z</time>
      </trkpt>
      <trkpt lat="44.91601" lon="4.17858">
        <ele>1568</ele>
        <time>2021-06-03T06:10:25Z</time>
      </trkpt>
      <trkpt lat="44.91605" lon="4.17876">
        <ele>1568</ele>
        <time>2021-06-03T06:10:27Z</time>
      </trkpt>
      <trkpt lat="44.91616" lon="4.17921">
        <ele>1567</ele>
        <time>2021-06-03T06:10:33Z</time>
      </trkpt>
      <trkpt lat="44.91622" lon="4.17939">
        <ele>1566</ele>
        <time>2021-06-03T06:10:35Z</time>
      </trkpt>
      <trkpt lat="44.91632" lon="4.17961">
        <ele>1565</ele>
        <time>2021-06-03T06:10:39Z</time>
      </trkpt>
      <trkpt lat="44.91794" lon="4.18258">
        <ele>1542</ele>
        <time>2021-06-03T06:11:26Z</time>
      </trkpt>
      <trkpt lat="44.91826" lon="4.18313">
        <ele>1537</ele>
        <time>2021-06-03T06:11:35Z</time>
      </trkpt>
      <trkpt lat="44.91886" lon="4.18411">
        <ele>1535</ele>
        <time>2021-06-03T06:11:51Z</time>
      </trkpt>
      <trkpt lat="44.91932" lon="4.18459">
        <ele>1534</ele>
        <time>2021-06-03T06:12:01Z</time>
      </trkpt>
      <trkpt lat="44.91948" lon="4.18478">
        <ele>1533</ele>
        <time>2021-06-03T06:12:05Z</time>
      </trkpt>
      <trkpt lat="44.91962" lon="4.18501">
        <ele>1533</ele>
        <time>2021-06-03T06:12:09Z</time>
      </trkpt>
      <trkpt lat="44.92016" lon="4.18599">
        <ele>1532</ele>
        <time>2021-06-03T06:12:25Z</time>
      </trkpt>
      <trkpt lat="44.92053" lon="4.18663">
        <ele>1530</ele>
        <time>2021-06-03T06:12:35Z</time>
      </trkpt>
      <trkpt lat="44.9207" lon="4.18691">
        <ele>1528</ele>
        <time>2021-06-03T06:12:40Z</time>
      </trkpt>
      <trkpt lat="44.92125" lon="4.18767">
        <ele>1522</ele>
        <time>2021-06-03T06:12:53Z</time>
      </trkpt>
      <trkpt lat="44.92154" lon="4.1881">
        <ele>1519</ele>
        <time>2021-06-03T06:13:01Z</time>
      </trkpt>
      <trkpt lat="44.92181" lon="4.18844">
        <ele>1516</ele>
        <time>2021-06-03T06:13:07Z</time>
      </trkpt>
      <trkpt lat="44.92209" lon="4.18872">
        <ele>1514</ele>
        <time>2021-06-03T06:13:13Z</time>
      </trkpt>
      <trkpt lat="44.9223" lon="4.18889">
        <ele>1512</ele>
        <time>2021-06-03T06:13:18Z</time>
      </trkpt>
      <trkpt lat="44.92253" lon="4.189">
        <ele>1509</ele>
        <time>2021-06-03T06:13:22Z</time>
      </trkpt>
      <trkpt lat="44.92292" lon="4.18914">
        <ele>1507</ele>
        <time>2021-06-03T06:13:29Z</time>
      </trkpt>
      <trkpt lat="44.92325" lon="4.18921">
        <ele>1505</ele>
        <time>2021-06-03T06:13:35Z</time>
      </trkpt>
      <trkpt lat="44.92362" lon="4.18924">
        <ele>1503</ele>
        <time>2021-06-03T06:13:42Z</time>
      </trkpt>
      <trkpt lat="44.92407" lon="4.18926">
        <ele>1500</ele>
        <time>2021-06-03T06:13:50Z</time>
      </trkpt>
      <trkpt lat="44.92481" lon="4.18937">
        <ele>1496</ele>
        <time>2021-06-03T06:14:03Z</time>
      </trkpt>
      <trkpt lat="44.9249" lon="4.18942">
        <ele>1495</ele>
        <time>2021-06-03T06:14:05Z</time>
      </trkpt>
      <trkpt lat="44.92496" lon="4.1895">
        <ele>1494</ele>
        <time>2021-06-03T06:14:06Z</time>
      </trkpt>
      <trkpt lat="44.92499" lon="4.18957">
        <ele>1494</ele>
        <time>2021-06-03T06:14:07Z</time>
      </trkpt>
      <trkpt lat="44.925" lon="4.18963">
        <ele>1494</ele>
        <time>2021-06-03T06:14:08Z</time>
      </trkpt>
      <trkpt lat="44.92503" lon="4.18979">
        <ele>1494</ele>
        <time>2021-06-03T06:14:10Z</time>
      </trkpt>
      <trkpt lat="44.92514" lon="4.19064">
        <ele>1488</ele>
        <time>2021-06-03T06:14:21Z</time>
      </trkpt>
      <trkpt lat="44.92518" lon="4.19075">
        <ele>1486</ele>
        <time>2021-06-03T06:14:22Z</time>
      </trkpt>
      <trkpt lat="44.92525" lon="4.19084">
        <ele>1485</ele>
        <time>2021-06-03T06:14:24Z</time>
      </trkpt>
      <trkpt lat="44.92545" lon="4.19091">
        <ele>1483</ele>
        <time>2021-06-03T06:14:28Z</time>
      </trkpt>
      <trkpt lat="44.9257" lon="4.19093">
        <ele>1482</ele>
        <time>2021-06-03T06:14:32Z</time>
      </trkpt>
      <trkpt lat="44.92584" lon="4.19097">
        <ele>1480</ele>
        <time>2021-06-03T06:14:35Z</time>
      </trkpt>
      <trkpt lat="44.92608" lon="4.19106">
        <ele>1476</ele>
        <time>2021-06-03T06:14:39Z</time>
      </trkpt>
      <trkpt lat="44.92631" lon="4.19108">
        <ele>1472</ele>
        <time>2021-06-03T06:14:43Z</time>
      </trkpt>
      <trkpt lat="44.92645" lon="4.19107">
        <ele>1471</ele>
        <time>2021-06-03T06:14:46Z</time>
      </trkpt>
      <trkpt lat="44.92664" lon="4.19105">
        <ele>1469</ele>
        <time>2021-06-03T06:14:49Z</time>
      </trkpt>
      <trkpt lat="44.92741" lon="4.19088">
        <ele>1464</ele>
        <time>2021-06-03T06:15:03Z</time>
      </trkpt>
      <trkpt lat="44.92807" lon="4.19072">
        <ele>1462</ele>
        <time>2021-06-03T06:15:15Z</time>
      </trkpt>
      <trkpt lat="44.92837" lon="4.19057">
        <ele>1461</ele>
        <time>2021-06-03T06:15:21Z</time>
      </trkpt>
      <trkpt lat="44.92906" lon="4.19009">
        <ele>1458</ele>
        <time>2021-06-03T06:15:34Z</time>
      </trkpt>
      <trkpt lat="44.92916" lon="4.19006">
        <ele>1457</ele>
        <time>2021-06-03T06:15:36Z</time>
      </trkpt>
      <trkpt lat="44.92924" lon="4.19007">
        <ele>1456</ele>
        <time>2021-06-03T06:15:38Z</time>
      </trkpt>
      <trkpt lat="44.9293" lon="4.19011">
        <ele>1456</ele>
        <time>2021-06-03T06:15:39Z</time>
      </trkpt>
      <trkpt lat="44.92935" lon="4.19019">
        <ele>1455</ele>
        <time>2021-06-03T06:15:40Z</time>
      </trkpt>
      <trkpt lat="44.92939" lon="4.19031">
        <ele>1455</ele>
        <time>2021-06-03T06:15:42Z</time>
      </trkpt>
      <trkpt lat="44.92951" lon="4.19086">
        <ele>1452</ele>
        <time>2021-06-03T06:15:49Z</time>
      </trkpt>
      <trkpt lat="44.92957" lon="4.19116">
        <ele>1448</ele>
        <time>2021-06-03T06:15:53Z</time>
      </trkpt>
      <trkpt lat="44.92961" lon="4.19126">
        <ele>1447</ele>
        <time>2021-06-03T06:15:54Z</time>
      </trkpt>
      <trkpt lat="44.92967" lon="4.19133">
        <ele>1446</ele>
        <time>2021-06-03T06:15:56Z</time>
      </trkpt>
      <trkpt lat="44.92979" lon="4.19136">
        <ele>1445</ele>
        <time>2021-06-03T06:15:58Z</time>
      </trkpt>
      <trkpt lat="44.92987" lon="4.19132">
        <ele>1445</ele>
        <time>2021-06-03T06:15:59Z</time>
      </trkpt>
      <trkpt lat="44.93125" lon="4.18994">
        <ele>1436</ele>
        <time>2021-06-03T06:16:30Z</time>
      </trkpt>
      <trkpt lat="44.93134" lon="4.1899">
        <ele>1435</ele>
        <time>2021-06-03T06:16:31Z</time>
      </trkpt>
      <trkpt lat="44.93141" lon="4.1899">
        <ele>1434</ele>
        <time>2021-06-03T06:16:32Z</time>
      </trkpt>
      <trkpt lat="44.93148" lon="4.18994">
        <ele>1433</ele>
        <time>2021-06-03T06:16:34Z</time>
      </trkpt>
      <trkpt lat="44.93153" lon="4.19001">
        <ele>1433</ele>
        <time>2021-06-03T06:16:35Z</time>
      </trkpt>
      <trkpt lat="44.93195" lon="4.19116">
        <ele>1422</ele>
        <time>2021-06-03T06:16:51Z</time>
      </trkpt>
      <trkpt lat="44.93205" lon="4.19138">
        <ele>1420</ele>
        <time>2021-06-03T06:16:55Z</time>
      </trkpt>
      <trkpt lat="44.93211" lon="4.19146">
        <ele>1419</ele>
        <time>2021-06-03T06:16:56Z</time>
      </trkpt>
      <trkpt lat="44.93219" lon="4.1915">
        <ele>1418</ele>
        <time>2021-06-03T06:16:58Z</time>
      </trkpt>
      <trkpt lat="44.93225" lon="4.1915">
        <ele>1418</ele>
        <time>2021-06-03T06:16:59Z</time>
      </trkpt>
      <trkpt lat="44.93236" lon="4.19147">
        <ele>1417</ele>
        <time>2021-06-03T06:17:01Z</time>
      </trkpt>
      <trkpt lat="44.93344" lon="4.19079">
        <ele>1408</ele>
        <time>2021-06-03T06:17:22Z</time>
      </trkpt>
      <trkpt lat="44.93358" lon="4.19077">
        <ele>1406</ele>
        <time>2021-06-03T06:17:24Z</time>
      </trkpt>
      <trkpt lat="44.93364" lon="4.1908">
        <ele>1406</ele>
        <time>2021-06-03T06:17:25Z</time>
      </trkpt>
      <trkpt lat="44.93369" lon="4.19085">
        <ele>1405</ele>
        <time>2021-06-03T06:17:26Z</time>
      </trkpt>
      <trkpt lat="44.93375" lon="4.19092">
        <ele>1404</ele>
        <time>2021-06-03T06:17:28Z</time>
      </trkpt>
      <trkpt lat="44.93382" lon="4.19105">
        <ele>1403</ele>
        <time>2021-06-03T06:17:30Z</time>
      </trkpt>
      <trkpt lat="44.9341" lon="4.19169">
        <ele>1399</ele>
        <time>2021-06-03T06:17:39Z</time>
      </trkpt>
      <trkpt lat="44.93473" lon="4.19319">
        <ele>1391</ele>
        <time>2021-06-03T06:18:01Z</time>
      </trkpt>
      <trkpt lat="44.93494" lon="4.19375">
        <ele>1388</ele>
        <time>2021-06-03T06:18:09Z</time>
      </trkpt>
      <trkpt lat="44.93505" lon="4.19427">
        <ele>1386</ele>
        <time>2021-06-03T06:18:16Z</time>
      </trkpt>
      <trkpt lat="44.9351" lon="4.19473">
        <ele>1384</ele>
        <time>2021-06-03T06:18:22Z</time>
      </trkpt>
      <trkpt lat="44.93518" lon="4.19519">
        <ele>1381</ele>
        <time>2021-06-03T06:18:28Z</time>
      </trkpt>
      <trkpt lat="44.93536" lon="4.19595">
        <ele>1376</ele>
        <time>2021-06-03T06:18:38Z</time>
      </trkpt>
      <trkpt lat="44.93549" lon="4.1964">
        <ele>1373</ele>
        <time>2021-06-03T06:18:44Z</time>
      </trkpt>
      <trkpt lat="44.93568" lon="4.19687">
        <ele>1369</ele>
        <time>2021-06-03T06:18:51Z</time>
      </trkpt>
      <trkpt lat="44.93594" lon="4.19742">
        <ele>1362</ele>
        <time>2021-06-03T06:18:59Z</time>
      </trkpt>
      <trkpt lat="44.93601" lon="4.19762">
        <ele>1360</ele>
        <time>2021-06-03T06:19:02Z</time>
      </trkpt>
      <trkpt lat="44.93608" lon="4.19789">
        <ele>1358</ele>
        <time>2021-06-03T06:19:06Z</time>
      </trkpt>
      <trkpt lat="44.93612" lon="4.19815">
        <ele>1357</ele>
        <time>2021-06-03T06:19:09Z</time>
      </trkpt>
      <trkpt lat="44.93613" lon="4.19841">
        <ele>1355</ele>
        <time>2021-06-03T06:19:12Z</time>
      </trkpt>
      <trkpt lat="44.93611" lon="4.19965">
        <ele>1349</ele>
        <time>2021-06-03T06:19:28Z</time>
      </trkpt>
      <trkpt lat="44.93612" lon="4.20002">
        <ele>1347</ele>
        <time>2021-06-03T06:19:33Z</time>
      </trkpt>
      <trkpt lat="44.93613" lon="4.20011">
        <ele>1347</ele>
        <time>2021-06-03T06:19:34Z</time>
      </trkpt>
      <trkpt lat="44.93618" lon="4.20048">
        <ele>1347</ele>
        <time>2021-06-03T06:19:39Z</time>
      </trkpt>
      <trkpt lat="44.93625" lon="4.20089">
        <ele>1347</ele>
        <time>2021-06-03T06:19:44Z</time>
      </trkpt>
      <trkpt lat="44.93639" lon="4.20141">
        <ele>1348</ele>
        <time>2021-06-03T06:19:51Z</time>
      </trkpt>
      <trkpt lat="44.93661" lon="4.2021">
        <ele>1349</ele>
        <time>2021-06-03T06:20:00Z</time>
      </trkpt>
      <trkpt lat="44.93667" lon="4.2024">
        <ele>1349</ele>
        <time>2021-06-03T06:20:04Z</time>
      </trkpt>
      <trkpt lat="44.93674" lon="4.20279">
        <ele>1347</ele>
        <time>2021-06-03T06:20:09Z</time>
      </trkpt>
      <trkpt lat="44.9368" lon="4.20356">
        <ele>1345</ele>
        <time>2021-06-03T06:20:19Z</time>
      </trkpt>
      <trkpt lat="44.93683" lon="4.2037">
        <ele>1344</ele>
        <time>2021-06-03T06:20:21Z</time>
      </trkpt>
      <trkpt lat="44.93687" lon="4.20382">
        <ele>1343</ele>
        <time>2021-06-03T06:20:23Z</time>
      </trkpt>
      <trkpt lat="44.93694" lon="4.20393">
        <ele>1342</ele>
        <time>2021-06-03T06:20:25Z</time>
      </trkpt>
      <trkpt lat="44.93702" lon="4.20403">
        <ele>1340</ele>
        <time>2021-06-03T06:20:26Z</time>
      </trkpt>
      <trkpt lat="44.93713" lon="4.20413">
        <ele>1338</ele>
        <time>2021-06-03T06:20:29Z</time>
      </trkpt>
      <trkpt lat="44.93725" lon="4.20418">
        <ele>1336</ele>
        <time>2021-06-03T06:20:31Z</time>
      </trkpt>
      <trkpt lat="44.93749" lon="4.2042">
        <ele>1333</ele>
        <time>2021-06-03T06:20:35Z</time>
      </trkpt>
      <trkpt lat="44.93789" lon="4.20415">
        <ele>1329</ele>
        <time>2021-06-03T06:20:42Z</time>
      </trkpt>
      <trkpt lat="44.93799" lon="4.20415">
        <ele>1328</ele>
        <time>2021-06-03T06:20:44Z</time>
      </trkpt>
      <trkpt lat="44.93814" lon="4.20414">
        <ele>1327</ele>
        <time>2021-06-03T06:20:47Z</time>
      </trkpt>
      <trkpt lat="44.93866" lon="4.20396">
        <ele>1325</ele>
        <time>2021-06-03T06:20:56Z</time>
      </trkpt>
      <trkpt lat="44.93874" lon="4.20395">
        <ele>1324</ele>
        <time>2021-06-03T06:20:58Z</time>
      </trkpt>
      <trkpt lat="44.93902" lon="4.20402">
        <ele>1324</ele>
        <time>2021-06-03T06:21:03Z</time>
      </trkpt>
      <trkpt lat="44.93908" lon="4.20402">
        <ele>1324</ele>
        <time>2021-06-03T06:21:04Z</time>
      </trkpt>
      <trkpt lat="44.93914" lon="4.20401">
        <ele>1324</ele>
        <time>2021-06-03T06:21:05Z</time>
      </trkpt>
      <trkpt lat="44.9392" lon="4.20397">
        <ele>1324</ele>
        <time>2021-06-03T06:21:06Z</time>
      </trkpt>
      <trkpt lat="44.9396" lon="4.20343">
        <ele>1324</ele>
        <time>2021-06-03T06:21:16Z</time>
      </trkpt>
      <trkpt lat="44.93985" lon="4.20314">
        <ele>1321</ele>
        <time>2021-06-03T06:21:22Z</time>
      </trkpt>
      <trkpt lat="44.94005" lon="4.20294">
        <ele>1318</ele>
        <time>2021-06-03T06:21:26Z</time>
      </trkpt>
      <trkpt lat="44.94025" lon="4.20283">
        <ele>1315</ele>
        <time>2021-06-03T06:21:30Z</time>
      </trkpt>
      <trkpt lat="44.94046" lon="4.2028">
        <ele>1313</ele>
        <time>2021-06-03T06:21:34Z</time>
      </trkpt>
      <trkpt lat="44.94073" lon="4.2028">
        <ele>1312</ele>
        <time>2021-06-03T06:21:39Z</time>
      </trkpt>
      <trkpt lat="44.94093" lon="4.20283">
        <ele>1311</ele>
        <time>2021-06-03T06:21:42Z</time>
      </trkpt>
      <trkpt lat="44.94124" lon="4.20295">
        <ele>1309</ele>
        <time>2021-06-03T06:21:48Z</time>
      </trkpt>
      <trkpt lat="44.9416" lon="4.20313">
        <ele>1307</ele>
        <time>2021-06-03T06:21:55Z</time>
      </trkpt>
      <trkpt lat="44.94215" lon="4.20353">
        <ele>1304</ele>
        <time>2021-06-03T06:22:06Z</time>
      </trkpt>
      <trkpt lat="44.94237" lon="4.20363">
        <ele>1302</ele>
        <time>2021-06-03T06:22:10Z</time>
      </trkpt>
      <trkpt lat="44.94332" lon="4.20389">
        <ele>1291</ele>
        <time>2021-06-03T06:22:27Z</time>
      </trkpt>
      <trkpt lat="44.94395" lon="4.20413">
        <ele>1286</ele>
        <time>2021-06-03T06:22:39Z</time>
      </trkpt>
      <trkpt lat="44.94419" lon="4.20424">
        <ele>1285</ele>
        <time>2021-06-03T06:22:43Z</time>
      </trkpt>
      <trkpt lat="44.94423" lon="4.20425">
        <ele>1285</ele>
        <time>2021-06-03T06:22:44Z</time>
      </trkpt>
      <trkpt lat="44.94457" lon="4.20436">
        <ele>1285</ele>
        <time>2021-06-03T06:22:50Z</time>
      </trkpt>
      <trkpt lat="44.94477" lon="4.2044">
        <ele>1285</ele>
        <time>2021-06-03T06:22:54Z</time>
      </trkpt>
      <trkpt lat="44.94497" lon="4.20439">
        <ele>1284</ele>
        <time>2021-06-03T06:22:57Z</time>
      </trkpt>
      <trkpt lat="44.9453" lon="4.20432">
        <ele>1285</ele>
        <time>2021-06-03T06:23:03Z</time>
      </trkpt>
      <trkpt lat="44.94557" lon="4.20426">
        <ele>1286</ele>
        <time>2021-06-03T06:23:08Z</time>
      </trkpt>
      <trkpt lat="44.94599" lon="4.20409">
        <ele>1287</ele>
        <time>2021-06-03T06:23:16Z</time>
      </trkpt>
      <trkpt lat="44.94663" lon="4.20381">
        <ele>1287</ele>
        <time>2021-06-03T06:23:28Z</time>
      </trkpt>
      <trkpt lat="44.94675" lon="4.20378">
        <ele>1286</ele>
        <time>2021-06-03T06:23:30Z</time>
      </trkpt>
      <trkpt lat="44.94689" lon="4.20379">
        <ele>1286</ele>
        <time>2021-06-03T06:23:32Z</time>
      </trkpt>
      <trkpt lat="44.94723" lon="4.20389">
        <ele>1288</ele>
        <time>2021-06-03T06:23:39Z</time>
      </trkpt>
      <trkpt lat="44.94755" lon="4.20412">
        <ele>1292</ele>
        <time>2021-06-03T06:23:45Z</time>
      </trkpt>
      <trkpt lat="44.94792" lon="4.20435">
        <ele>1294</ele>
        <time>2021-06-03T06:23:52Z</time>
      </trkpt>
      <trkpt lat="44.94833" lon="4.2045">
        <ele>1294</ele>
        <time>2021-06-03T06:24:00Z</time>
      </trkpt>
      <trkpt lat="44.94851" lon="4.20455">
        <ele>1295</ele>
        <time>2021-06-03T06:24:03Z</time>
      </trkpt>
      <trkpt lat="44.9486" lon="4.20455">
        <ele>1295</ele>
        <time>2021-06-03T06:24:05Z</time>
      </trkpt>
      <trkpt lat="44.94874" lon="4.2045">
        <ele>1295</ele>
        <time>2021-06-03T06:24:07Z</time>
      </trkpt>
      <trkpt lat="44.94893" lon="4.20444">
        <ele>1295</ele>
        <time>2021-06-03T06:24:11Z</time>
      </trkpt>
      <trkpt lat="44.94903" lon="4.20438">
        <ele>1295</ele>
        <time>2021-06-03T06:24:12Z</time>
      </trkpt>
      <trkpt lat="44.9491" lon="4.20432">
        <ele>1294</ele>
        <time>2021-06-03T06:24:14Z</time>
      </trkpt>
      <trkpt lat="44.94923" lon="4.20421">
        <ele>1294</ele>
        <time>2021-06-03T06:24:17Z</time>
      </trkpt>
      <trkpt lat="44.94934" lon="4.20409">
        <ele>1294</ele>
        <time>2021-06-03T06:24:19Z</time>
      </trkpt>
      <trkpt lat="44.94953" lon="4.20397">
        <ele>1295</ele>
        <time>2021-06-03T06:24:23Z</time>
      </trkpt>
      <trkpt lat="44.94975" lon="4.20381">
        <ele>1296</ele>
        <time>2021-06-03T06:24:27Z</time>
      </trkpt>
      <trkpt lat="44.94987" lon="4.20366">
        <ele>1296</ele>
        <time>2021-06-03T06:24:30Z</time>
      </trkpt>
      <trkpt lat="44.94995" lon="4.2035">
        <ele>1296</ele>
        <time>2021-06-03T06:24:33Z</time>
      </trkpt>
      <trkpt lat="44.95002" lon="4.20328">
        <ele>1295</ele>
        <time>2021-06-03T06:24:36Z</time>
      </trkpt>
      <trkpt lat="44.9502" lon="4.20297">
        <ele>1296</ele>
        <time>2021-06-03T06:24:41Z</time>
      </trkpt>
      <trkpt lat="44.95028" lon="4.20282">
        <ele>1296</ele>
        <time>2021-06-03T06:24:43Z</time>
      </trkpt>
      <trkpt lat="44.95034" lon="4.20264">
        <ele>1296</ele>
        <time>2021-06-03T06:24:45Z</time>
      </trkpt>
      <trkpt lat="44.95038" lon="4.20245">
        <ele>1295</ele>
        <time>2021-06-03T06:24:48Z</time>
      </trkpt>
      <trkpt lat="44.9505" lon="4.20214">
        <ele>1295</ele>
        <time>2021-06-03T06:24:52Z</time>
      </trkpt>
      <trkpt lat="44.9507" lon="4.20128">
        <ele>1292</ele>
        <time>2021-06-03T06:25:04Z</time>
      </trkpt>
      <trkpt lat="44.95084" lon="4.20079">
        <ele>1290</ele>
        <time>2021-06-03T06:25:10Z</time>
      </trkpt>
      <trkpt lat="44.95104" lon="4.20017">
        <ele>1287</ele>
        <time>2021-06-03T06:25:19Z</time>
      </trkpt>
      <trkpt lat="44.95119" lon="4.19981">
        <ele>1287</ele>
        <time>2021-06-03T06:25:24Z</time>
      </trkpt>
      <trkpt lat="44.95145" lon="4.19939">
        <ele>1289</ele>
        <time>2021-06-03T06:25:31Z</time>
      </trkpt>
      <trkpt lat="44.95171" lon="4.19899">
        <ele>1290</ele>
        <time>2021-06-03T06:25:38Z</time>
      </trkpt>
      <trkpt lat="44.9518" lon="4.19888">
        <ele>1289</ele>
        <time>2021-06-03T06:25:40Z</time>
      </trkpt>
      <trkpt lat="44.95191" lon="4.19875">
        <ele>1288</ele>
        <time>2021-06-03T06:25:43Z</time>
      </trkpt>
      <trkpt lat="44.95205" lon="4.19858">
        <ele>1287</ele>
        <time>2021-06-03T06:25:46Z</time>
      </trkpt>
      <trkpt lat="44.95237" lon="4.19827">
        <ele>1286</ele>
        <time>2021-06-03T06:25:53Z</time>
      </trkpt>
      <trkpt lat="44.95298" lon="4.19766">
        <ele>1283</ele>
        <time>2021-06-03T06:26:06Z</time>
      </trkpt>
      <trkpt lat="44.95331" lon="4.19735">
        <ele>1282</ele>
        <time>2021-06-03T06:26:13Z</time>
      </trkpt>
      <trkpt lat="44.95376" lon="4.19705">
        <ele>1279</ele>
        <time>2021-06-03T06:26:22Z</time>
      </trkpt>
      <trkpt lat="44.95416" lon="4.19683">
        <ele>1277</ele>
        <time>2021-06-03T06:26:30Z</time>
      </trkpt>
      <trkpt lat="44.95446" lon="4.19671">
        <ele>1274</ele>
        <time>2021-06-03T06:26:35Z</time>
      </trkpt>
      <trkpt lat="44.95469" lon="4.19663">
        <ele>1273</ele>
        <time>2021-06-03T06:26:40Z</time>
      </trkpt>
      <trkpt lat="44.95557" lon="4.1965">
        <ele>1268</ele>
        <time>2021-06-03T06:26:55Z</time>
      </trkpt>
      <trkpt lat="44.95636" lon="4.19648">
        <ele>1265</ele>
        <time>2021-06-03T06:27:09Z</time>
      </trkpt>
      <trkpt lat="44.95687" lon="4.19651">
        <ele>1262</ele>
        <time>2021-06-03T06:27:19Z</time>
      </trkpt>
      <trkpt lat="44.9576" lon="4.19651">
        <ele>1259</ele>
        <time>2021-06-03T06:27:32Z</time>
      </trkpt>
      <trkpt lat="44.95777" lon="4.19653">
        <ele>1258</ele>
        <time>2021-06-03T06:27:35Z</time>
      </trkpt>
      <trkpt lat="44.95792" lon="4.19657">
        <ele>1256</ele>
        <time>2021-06-03T06:27:37Z</time>
      </trkpt>
      <trkpt lat="44.95816" lon="4.19667">
        <ele>1253</ele>
        <time>2021-06-03T06:27:42Z</time>
      </trkpt>
      <trkpt lat="44.95834" lon="4.19677">
        <ele>1251</ele>
        <time>2021-06-03T06:27:45Z</time>
      </trkpt>
      <trkpt lat="44.95878" lon="4.19698">
        <ele>1249</ele>
        <time>2021-06-03T06:27:53Z</time>
      </trkpt>
      <trkpt lat="44.95933" lon="4.19717">
        <ele>1248</ele>
        <time>2021-06-03T06:28:03Z</time>
      </trkpt>
      <trkpt lat="44.95952" lon="4.19729">
        <ele>1246</ele>
        <time>2021-06-03T06:28:07Z</time>
      </trkpt>
      <trkpt lat="44.95974" lon="4.19746">
        <ele>1245</ele>
        <time>2021-06-03T06:28:12Z</time>
      </trkpt>
      <trkpt lat="44.96" lon="4.19765">
        <ele>1243</ele>
        <time>2021-06-03T06:28:17Z</time>
      </trkpt>
      <trkpt lat="44.96123" lon="4.19842">
        <ele>1235</ele>
        <time>2021-06-03T06:28:41Z</time>
      </trkpt>
      <trkpt lat="44.96143" lon="4.19858">
        <ele>1233</ele>
        <time>2021-06-03T06:28:45Z</time>
      </trkpt>
      <trkpt lat="44.96174" lon="4.19895">
        <ele>1228</ele>
        <time>2021-06-03T06:28:52Z</time>
      </trkpt>
      <trkpt lat="44.96211" lon="4.19945">
        <ele>1223</ele>
        <time>2021-06-03T06:29:01Z</time>
      </trkpt>
      <trkpt lat="44.96244" lon="4.19985">
        <ele>1219</ele>
        <time>2021-06-03T06:29:09Z</time>
      </trkpt>
      <trkpt lat="44.96272" lon="4.20014">
        <ele>1216</ele>
        <time>2021-06-03T06:29:15Z</time>
      </trkpt>
      <trkpt lat="44.96297" lon="4.20036">
        <ele>1213</ele>
        <time>2021-06-03T06:29:20Z</time>
      </trkpt>
      <trkpt lat="44.9632" lon="4.20053">
        <ele>1212</ele>
        <time>2021-06-03T06:29:25Z</time>
      </trkpt>
      <trkpt lat="44.96335" lon="4.20058">
        <ele>1212</ele>
        <time>2021-06-03T06:29:28Z</time>
      </trkpt>
      <trkpt lat="44.96353" lon="4.20061">
        <ele>1210</ele>
        <time>2021-06-03T06:29:31Z</time>
      </trkpt>
      <trkpt lat="44.96375" lon="4.20057">
        <ele>1208</ele>
        <time>2021-06-03T06:29:35Z</time>
      </trkpt>
      <trkpt lat="44.96402" lon="4.20046">
        <ele>1207</ele>
        <time>2021-06-03T06:29:40Z</time>
      </trkpt>
      <trkpt lat="44.96433" lon="4.20026">
        <ele>1205</ele>
        <time>2021-06-03T06:29:46Z</time>
      </trkpt>
      <trkpt lat="44.9646" lon="4.20004">
        <ele>1203</ele>
        <time>2021-06-03T06:29:52Z</time>
      </trkpt>
      <trkpt lat="44.96545" lon="4.1993">
        <ele>1197</ele>
        <time>2021-06-03T06:30:09Z</time>
      </trkpt>
      <trkpt lat="44.96566" lon="4.1992">
        <ele>1195</ele>
        <time>2021-06-03T06:30:13Z</time>
      </trkpt>
      <trkpt lat="44.96633" lon="4.19897">
        <ele>1189</ele>
        <time>2021-06-03T06:30:25Z</time>
      </trkpt>
      <trkpt lat="44.96631" lon="4.19919">
        <ele>1188</ele>
        <time>2021-06-03T06:30:28Z</time>
      </trkpt>
      <trkpt lat="44.96633" lon="4.19897">
        <ele>1189</ele>
        <time>2021-06-03T06:30:31Z</time>
      </trkpt>
      <trkpt lat="44.9664" lon="4.19894">
        <ele>1188</ele>
        <time>2021-06-03T06:30:32Z</time>
      </trkpt>
      <trkpt lat="44.96664" lon="4.19887">
        <ele>1186</ele>
        <time>2021-06-03T06:30:37Z</time>
      </trkpt>
      <trkpt lat="44.96682" lon="4.19883">
        <ele>1185</ele>
        <time>2021-06-03T06:30:40Z</time>
      </trkpt>
      <trkpt lat="44.96692" lon="4.19885">
        <ele>1184</ele>
        <time>2021-06-03T06:30:42Z</time>
      </trkpt>
      <trkpt lat="44.96702" lon="4.19894">
        <ele>1183</ele>
        <time>2021-06-03T06:30:44Z</time>
      </trkpt>
      <trkpt lat="44.96711" lon="4.19908">
        <ele>1181</ele>
        <time>2021-06-03T06:30:46Z</time>
      </trkpt>
      <trkpt lat="44.96737" lon="4.19976">
        <ele>1176</ele>
        <time>2021-06-03T06:30:56Z</time>
      </trkpt>
      <trkpt lat="44.96741" lon="4.19994">
        <ele>1175</ele>
        <time>2021-06-03T06:30:58Z</time>
      </trkpt>
      <trkpt lat="44.96745" lon="4.20054">
        <ele>1173</ele>
        <time>2021-06-03T06:31:06Z</time>
      </trkpt>
      <trkpt lat="44.96749" lon="4.20077">
        <ele>1172</ele>
        <time>2021-06-03T06:31:09Z</time>
      </trkpt>
      <trkpt lat="44.96777" lon="4.20181">
        <ele>1170</ele>
        <time>2021-06-03T06:31:23Z</time>
      </trkpt>
      <trkpt lat="44.96809" lon="4.20263">
        <ele>1167</ele>
        <time>2021-06-03T06:31:35Z</time>
      </trkpt>
      <trkpt lat="44.96817" lon="4.20277">
        <ele>1167</ele>
        <time>2021-06-03T06:31:37Z</time>
      </trkpt>
      <trkpt lat="44.96829" lon="4.20291">
        <ele>1166</ele>
        <time>2021-06-03T06:31:40Z</time>
      </trkpt>
      <trkpt lat="44.96892" lon="4.20337">
        <ele>1163</ele>
        <time>2021-06-03T06:31:52Z</time>
      </trkpt>
      <trkpt lat="44.96908" lon="4.20357">
        <ele>1161</ele>
        <time>2021-06-03T06:31:56Z</time>
      </trkpt>
      <trkpt lat="44.9693" lon="4.20388">
        <ele>1159</ele>
        <time>2021-06-03T06:32:02Z</time>
      </trkpt>
      <trkpt lat="44.96952" lon="4.20411">
        <ele>1156</ele>
        <time>2021-06-03T06:32:07Z</time>
      </trkpt>
      <trkpt lat="44.96976" lon="4.20426">
        <ele>1154</ele>
        <time>2021-06-03T06:32:11Z</time>
      </trkpt>
      <trkpt lat="44.97" lon="4.20433">
        <ele>1152</ele>
        <time>2021-06-03T06:32:16Z</time>
      </trkpt>
      <trkpt lat="44.97069" lon="4.20431">
        <ele>1146</ele>
        <time>2021-06-03T06:32:28Z</time>
      </trkpt>
      <trkpt lat="44.97134" lon="4.20427">
        <ele>1146</ele>
        <time>2021-06-03T06:32:39Z</time>
      </trkpt>
      <trkpt lat="44.97161" lon="4.20423">
        <ele>1147</ele>
        <time>2021-06-03T06:32:44Z</time>
      </trkpt>
      <trkpt lat="44.97186" lon="4.20422">
        <ele>1148</ele>
        <time>2021-06-03T06:32:49Z</time>
      </trkpt>
      <trkpt lat="44.97215" lon="4.20421">
        <ele>1150</ele>
        <time>2021-06-03T06:32:54Z</time>
      </trkpt>
      <trkpt lat="44.97259" lon="4.20422">
        <ele>1152</ele>
        <time>2021-06-03T06:33:02Z</time>
      </trkpt>
      <trkpt lat="44.97286" lon="4.20426">
        <ele>1154</ele>
        <time>2021-06-03T06:33:07Z</time>
      </trkpt>
      <trkpt lat="44.97356" lon="4.20438">
        <ele>1157</ele>
        <time>2021-06-03T06:33:19Z</time>
      </trkpt>
      <trkpt lat="44.9736" lon="4.20439">
        <ele>1157</ele>
        <time>2021-06-03T06:33:20Z</time>
      </trkpt>
      <trkpt lat="44.97378" lon="4.20443">
        <ele>1158</ele>
        <time>2021-06-03T06:33:23Z</time>
      </trkpt>
      <trkpt lat="44.97396" lon="4.20443">
        <ele>1159</ele>
        <time>2021-06-03T06:33:26Z</time>
      </trkpt>
      <trkpt lat="44.97425" lon="4.20506">
        <ele>1156</ele>
        <time>2021-06-03T06:33:36Z</time>
      </trkpt>
      <trkpt lat="44.97436" lon="4.20524">
        <ele>1156</ele>
        <time>2021-06-03T06:33:39Z</time>
      </trkpt>
      <trkpt lat="44.9747" lon="4.20566">
        <ele>1157</ele>
        <time>2021-06-03T06:33:47Z</time>
      </trkpt>
      <trkpt lat="44.97478" lon="4.20581">
        <ele>1157</ele>
        <time>2021-06-03T06:33:49Z</time>
      </trkpt>
      <trkpt lat="44.97484" lon="4.206">
        <ele>1157</ele>
        <time>2021-06-03T06:33:52Z</time>
      </trkpt>
      <trkpt lat="44.97492" lon="4.20642">
        <ele>1157</ele>
        <time>2021-06-03T06:33:57Z</time>
      </trkpt>
      <trkpt lat="44.97498" lon="4.20682">
        <ele>1157</ele>
        <time>2021-06-03T06:34:02Z</time>
      </trkpt>
      <trkpt lat="44.97498" lon="4.20709">
        <ele>1157</ele>
        <time>2021-06-03T06:34:06Z</time>
      </trkpt>
      <trkpt lat="44.97493" lon="4.20793">
        <ele>1157</ele>
        <time>2021-06-03T06:34:16Z</time>
      </trkpt>
      <trkpt lat="44.97489" lon="4.20817">
        <ele>1156</ele>
        <time>2021-06-03T06:34:19Z</time>
      </trkpt>
      <trkpt lat="44.9747" lon="4.2089">
        <ele>1153</ele>
        <time>2021-06-03T06:34:29Z</time>
      </trkpt>
      <trkpt lat="44.97467" lon="4.20911">
        <ele>1152</ele>
        <time>2021-06-03T06:34:32Z</time>
      </trkpt>
      <trkpt lat="44.97467" lon="4.20935">
        <ele>1152</ele>
        <time>2021-06-03T06:34:35Z</time>
      </trkpt>
      <trkpt lat="44.97472" lon="4.21022">
        <ele>1151</ele>
        <time>2021-06-03T06:34:46Z</time>
      </trkpt>
      <trkpt lat="44.97495" lon="4.21241">
        <ele>1142</ele>
        <time>2021-06-03T06:35:14Z</time>
      </trkpt>
      <trkpt lat="44.97499" lon="4.2126">
        <ele>1141</ele>
        <time>2021-06-03T06:35:16Z</time>
      </trkpt>
      <trkpt lat="44.97539" lon="4.21398">
        <ele>1139</ele>
        <time>2021-06-03T06:35:35Z</time>
      </trkpt>
      <trkpt lat="44.97576" lon="4.21572">
        <ele>1132</ele>
        <time>2021-06-03T06:35:58Z</time>
      </trkpt>
      <trkpt lat="44.97582" lon="4.2159">
        <ele>1131</ele>
        <time>2021-06-03T06:36:00Z</time>
      </trkpt>
      <trkpt lat="44.9759" lon="4.21605">
        <ele>1130</ele>
        <time>2021-06-03T06:36:03Z</time>
      </trkpt>
      <trkpt lat="44.976" lon="4.21619">
        <ele>1129</ele>
        <time>2021-06-03T06:36:05Z</time>
      </trkpt>
      <trkpt lat="44.97613" lon="4.21631">
        <ele>1129</ele>
        <time>2021-06-03T06:36:08Z</time>
      </trkpt>
      <trkpt lat="44.97718" lon="4.21713">
        <ele>1124</ele>
        <time>2021-06-03T06:36:29Z</time>
      </trkpt>
      <trkpt lat="44.97755" lon="4.21739">
        <ele>1121</ele>
        <time>2021-06-03T06:36:37Z</time>
      </trkpt>
      <trkpt lat="44.97774" lon="4.21754">
        <ele>1120</ele>
        <time>2021-06-03T06:36:41Z</time>
      </trkpt>
      <trkpt lat="44.97777" lon="4.21757">
        <ele>1120</ele>
        <time>2021-06-03T06:36:41Z</time>
      </trkpt>
      <trkpt lat="44.97777" lon="4.21767">
        <ele>1120</ele>
        <time>2021-06-03T06:36:43Z</time>
      </trkpt>
      <trkpt lat="44.97778" lon="4.21825">
        <ele>1119</ele>
        <time>2021-06-03T06:36:50Z</time>
      </trkpt>
      <trkpt lat="44.97779" lon="4.21861">
        <ele>1120</ele>
        <time>2021-06-03T06:36:54Z</time>
      </trkpt>
      <trkpt lat="44.97779" lon="4.21917">
        <ele>1123</ele>
        <time>2021-06-03T06:37:01Z</time>
      </trkpt>
      <trkpt lat="44.97782" lon="4.21939">
        <ele>1125</ele>
        <time>2021-06-03T06:37:04Z</time>
      </trkpt>
      <trkpt lat="44.97788" lon="4.21959">
        <ele>1126</ele>
        <time>2021-06-03T06:37:07Z</time>
      </trkpt>
      <trkpt lat="44.97785" lon="4.21961">
        <ele>1126</ele>
        <time>2021-06-03T06:37:08Z</time>
      </trkpt>
      <trkpt lat="44.97777" lon="4.21959">
        <ele>1127</ele>
        <time>2021-06-03T06:37:09Z</time>
      </trkpt>
      <trkpt lat="44.97763" lon="4.21983">
        <ele>1129</ele>
        <time>2021-06-03T06:37:13Z</time>
      </trkpt>
      <trkpt lat="44.97777" lon="4.21959">
        <ele>1127</ele>
        <time>2021-06-03T06:37:17Z</time>
      </trkpt>
      <trkpt lat="44.97785" lon="4.21961">
        <ele>1126</ele>
        <time>2021-06-03T06:37:18Z</time>
      </trkpt>
      <trkpt lat="44.97788" lon="4.21959">
        <ele>1126</ele>
        <time>2021-06-03T06:37:19Z</time>
      </trkpt>
      <trkpt lat="44.97799" lon="4.21974">
        <ele>1127</ele>
        <time>2021-06-03T06:37:22Z</time>
      </trkpt>
      <trkpt lat="44.97817" lon="4.21987">
        <ele>1128</ele>
        <time>2021-06-03T06:37:25Z</time>
      </trkpt>
      <trkpt lat="44.97871" lon="4.2201">
        <ele>1131</ele>
        <time>2021-06-03T06:37:35Z</time>
      </trkpt>
      <trkpt lat="44.97916" lon="4.22029">
        <ele>1136</ele>
        <time>2021-06-03T06:37:44Z</time>
      </trkpt>
      <trkpt lat="44.97934" lon="4.22029">
        <ele>1137</ele>
        <time>2021-06-03T06:37:47Z</time>
      </trkpt>
      <trkpt lat="44.98002" lon="4.22015">
        <ele>1139</ele>
        <time>2021-06-03T06:37:59Z</time>
      </trkpt>
      <trkpt lat="44.98021" lon="4.22016">
        <ele>1137</ele>
        <time>2021-06-03T06:38:02Z</time>
      </trkpt>
      <trkpt lat="44.98042" lon="4.22025">
        <ele>1136</ele>
        <time>2021-06-03T06:38:06Z</time>
      </trkpt>
      <trkpt lat="44.98199" lon="4.22159">
        <ele>1153</ele>
        <time>2021-06-03T06:38:39Z</time>
      </trkpt>
      <trkpt lat="44.98217" lon="4.22179">
        <ele>1154</ele>
        <time>2021-06-03T06:38:43Z</time>
      </trkpt>
      <trkpt lat="44.98241" lon="4.22219">
        <ele>1158</ele>
        <time>2021-06-03T06:38:50Z</time>
      </trkpt>
      <trkpt lat="44.98324" lon="4.22386">
        <ele>1171</ele>
        <time>2021-06-03T06:39:15Z</time>
      </trkpt>
      <trkpt lat="44.98339" lon="4.22408">
        <ele>1173</ele>
        <time>2021-06-03T06:39:19Z</time>
      </trkpt>
      <trkpt lat="44.98358" lon="4.2243">
        <ele>1173</ele>
        <time>2021-06-03T06:39:24Z</time>
      </trkpt>
      <trkpt lat="44.9843" lon="4.22486">
        <ele>1173</ele>
        <time>2021-06-03T06:39:38Z</time>
      </trkpt>
      <trkpt lat="44.98502" lon="4.22542">
        <ele>1175</ele>
        <time>2021-06-03T06:39:53Z</time>
      </trkpt>
      <trkpt lat="44.98504" lon="4.22543">
        <ele>1175</ele>
        <time>2021-06-03T06:39:53Z</time>
      </trkpt>
      <trkpt lat="44.98515" lon="4.22546">
        <ele>1176</ele>
        <time>2021-06-03T06:39:55Z</time>
      </trkpt>
      <trkpt lat="44.98523" lon="4.22543">
        <ele>1176</ele>
        <time>2021-06-03T06:39:57Z</time>
      </trkpt>
      <trkpt lat="44.98539" lon="4.22529">
        <ele>1175</ele>
        <time>2021-06-03T06:40:00Z</time>
      </trkpt>
      <trkpt lat="44.98546" lon="4.22523">
        <ele>1175</ele>
        <time>2021-06-03T06:40:01Z</time>
      </trkpt>
      <trkpt lat="44.98553" lon="4.22517">
        <ele>1175</ele>
        <time>2021-06-03T06:40:03Z</time>
      </trkpt>
      <trkpt lat="44.98565" lon="4.2251">
        <ele>1175</ele>
        <time>2021-06-03T06:40:05Z</time>
      </trkpt>
      <trkpt lat="44.98575" lon="4.22509">
        <ele>1176</ele>
        <time>2021-06-03T06:40:07Z</time>
      </trkpt>
      <trkpt lat="44.98587" lon="4.22511">
        <ele>1177</ele>
        <time>2021-06-03T06:40:09Z</time>
      </trkpt>
      <trkpt lat="44.98599" lon="4.22516">
        <ele>1176</ele>
        <time>2021-06-03T06:40:11Z</time>
      </trkpt>
      <trkpt lat="44.98619" lon="4.2253">
        <ele>1176</ele>
        <time>2021-06-03T06:40:15Z</time>
      </trkpt>
      <trkpt lat="44.98624" lon="4.22538">
        <ele>1176</ele>
        <time>2021-06-03T06:40:17Z</time>
      </trkpt>
      <trkpt lat="44.98628" lon="4.22546">
        <ele>1177</ele>
        <time>2021-06-03T06:40:18Z</time>
      </trkpt>
      <trkpt lat="44.98628" lon="4.22557">
        <ele>1178</ele>
        <time>2021-06-03T06:40:19Z</time>
      </trkpt>
      <trkpt lat="44.98621" lon="4.22584">
        <ele>1180</ele>
        <time>2021-06-03T06:40:23Z</time>
      </trkpt>
      <trkpt lat="44.9862" lon="4.22587">
        <ele>1180</ele>
        <time>2021-06-03T06:40:23Z</time>
      </trkpt>
      <trkpt lat="44.98616" lon="4.22605">
        <ele>1180</ele>
        <time>2021-06-03T06:40:26Z</time>
      </trkpt>
      <trkpt lat="44.98613" lon="4.22614">
        <ele>1181</ele>
        <time>2021-06-03T06:40:27Z</time>
      </trkpt>
      <trkpt lat="44.98608" lon="4.22632">
        <ele>1181</ele>
        <time>2021-06-03T06:40:29Z</time>
      </trkpt>
      <trkpt lat="44.98604" lon="4.22639">
        <ele>1181</ele>
        <time>2021-06-03T06:40:31Z</time>
      </trkpt>
      <trkpt lat="44.98594" lon="4.22654">
        <ele>1181</ele>
        <time>2021-06-03T06:40:33Z</time>
      </trkpt>
      <trkpt lat="44.98592" lon="4.22656">
        <ele>1181</ele>
        <time>2021-06-03T06:40:34Z</time>
      </trkpt>
      <trkpt lat="44.98584" lon="4.22666">
        <ele>1181</ele>
        <time>2021-06-03T06:40:35Z</time>
      </trkpt>
      <trkpt lat="44.9857" lon="4.22686">
        <ele>1180</ele>
        <time>2021-06-03T06:40:39Z</time>
      </trkpt>
      <trkpt lat="44.98558" lon="4.22699">
        <ele>1180</ele>
        <time>2021-06-03T06:40:42Z</time>
      </trkpt>
      <trkpt lat="44.98525" lon="4.2272">
        <ele>1181</ele>
        <time>2021-06-03T06:40:48Z</time>
      </trkpt>
      <trkpt lat="44.98497" lon="4.2274">
        <ele>1181</ele>
        <time>2021-06-03T06:40:54Z</time>
      </trkpt>
      <trkpt lat="44.9846" lon="4.22762">
        <ele>1179</ele>
        <time>2021-06-03T06:41:01Z</time>
      </trkpt>
      <trkpt lat="44.98443" lon="4.22774">
        <ele>1177</ele>
        <time>2021-06-03T06:41:04Z</time>
      </trkpt>
      <trkpt lat="44.98414" lon="4.22783">
        <ele>1176</ele>
        <time>2021-06-03T06:41:10Z</time>
      </trkpt>
      <trkpt lat="44.98389" lon="4.22791">
        <ele>1175</ele>
        <time>2021-06-03T06:41:14Z</time>
      </trkpt>
      <trkpt lat="44.98312" lon="4.22812">
        <ele>1172</ele>
        <time>2021-06-03T06:41:28Z</time>
      </trkpt>
      <trkpt lat="44.98293" lon="4.22817">
        <ele>1171</ele>
        <time>2021-06-03T06:41:31Z</time>
      </trkpt>
      <trkpt lat="44.98272" lon="4.22817">
        <ele>1171</ele>
        <time>2021-06-03T06:41:35Z</time>
      </trkpt>
      <trkpt lat="44.98243" lon="4.22814">
        <ele>1170</ele>
        <time>2021-06-03T06:41:40Z</time>
      </trkpt>
      <trkpt lat="44.98227" lon="4.22813">
        <ele>1168</ele>
        <time>2021-06-03T06:41:43Z</time>
      </trkpt>
      <trkpt lat="44.98209" lon="4.22809">
        <ele>1167</ele>
        <time>2021-06-03T06:41:46Z</time>
      </trkpt>
      <trkpt lat="44.98192" lon="4.228">
        <ele>1166</ele>
        <time>2021-06-03T06:41:50Z</time>
      </trkpt>
      <trkpt lat="44.98174" lon="4.22786">
        <ele>1165</ele>
        <time>2021-06-03T06:41:53Z</time>
      </trkpt>
      <trkpt lat="44.98126" lon="4.22745">
        <ele>1167</ele>
        <time>2021-06-03T06:42:03Z</time>
      </trkpt>
      <trkpt lat="44.98116" lon="4.22739">
        <ele>1167</ele>
        <time>2021-06-03T06:42:05Z</time>
      </trkpt>
      <trkpt lat="44.98102" lon="4.22733">
        <ele>1166</ele>
        <time>2021-06-03T06:42:08Z</time>
      </trkpt>
      <trkpt lat="44.98091" lon="4.22733">
        <ele>1166</ele>
        <time>2021-06-03T06:42:10Z</time>
      </trkpt>
      <trkpt lat="44.98082" lon="4.22735">
        <ele>1165</ele>
        <time>2021-06-03T06:42:11Z</time>
      </trkpt>
      <trkpt lat="44.98003" lon="4.22769">
        <ele>1161</ele>
        <time>2021-06-03T06:42:26Z</time>
      </trkpt>
      <trkpt lat="44.97973" lon="4.22786">
        <ele>1161</ele>
        <time>2021-06-03T06:42:32Z</time>
      </trkpt>
      <trkpt lat="44.97958" lon="4.22798">
        <ele>1161</ele>
        <time>2021-06-03T06:42:35Z</time>
      </trkpt>
      <trkpt lat="44.97947" lon="4.22809">
        <ele>1160</ele>
        <time>2021-06-03T06:42:37Z</time>
      </trkpt>
      <trkpt lat="44.97933" lon="4.22827">
        <ele>1160</ele>
        <time>2021-06-03T06:42:41Z</time>
      </trkpt>
      <trkpt lat="44.9792" lon="4.22856">
        <ele>1158</ele>
        <time>2021-06-03T06:42:45Z</time>
      </trkpt>
      <trkpt lat="44.9791" lon="4.22884">
        <ele>1158</ele>
        <time>2021-06-03T06:42:49Z</time>
      </trkpt>
      <trkpt lat="44.97904" lon="4.22909">
        <ele>1157</ele>
        <time>2021-06-03T06:42:52Z</time>
      </trkpt>
      <trkpt lat="44.97902" lon="4.22932">
        <ele>1157</ele>
        <time>2021-06-03T06:42:55Z</time>
      </trkpt>
      <trkpt lat="44.97905" lon="4.22951">
        <ele>1156</ele>
        <time>2021-06-03T06:42:58Z</time>
      </trkpt>
      <trkpt lat="44.97912" lon="4.22968">
        <ele>1156</ele>
        <time>2021-06-03T06:43:00Z</time>
      </trkpt>
      <trkpt lat="44.97918" lon="4.22979">
        <ele>1156</ele>
        <time>2021-06-03T06:43:02Z</time>
      </trkpt>
      <trkpt lat="44.97976" lon="4.23066">
        <ele>1150</ele>
        <time>2021-06-03T06:43:17Z</time>
      </trkpt>
      <trkpt lat="44.97984" lon="4.23081">
        <ele>1150</ele>
        <time>2021-06-03T06:43:19Z</time>
      </trkpt>
      <trkpt lat="44.97988" lon="4.23099">
        <ele>1149</ele>
        <time>2021-06-03T06:43:22Z</time>
      </trkpt>
      <trkpt lat="44.97991" lon="4.2312">
        <ele>1149</ele>
        <time>2021-06-03T06:43:24Z</time>
      </trkpt>
      <trkpt lat="44.97997" lon="4.23361">
        <ele>1145</ele>
        <time>2021-06-03T06:43:55Z</time>
      </trkpt>
      <trkpt lat="44.97996" lon="4.23394">
        <ele>1144</ele>
        <time>2021-06-03T06:43:59Z</time>
      </trkpt>
      <trkpt lat="44.97987" lon="4.23488">
        <ele>1142</ele>
        <time>2021-06-03T06:44:11Z</time>
      </trkpt>
      <trkpt lat="44.97982" lon="4.23524">
        <ele>1140</ele>
        <time>2021-06-03T06:44:15Z</time>
      </trkpt>
      <trkpt lat="44.97975" lon="4.23545">
        <ele>1139</ele>
        <time>2021-06-03T06:44:18Z</time>
      </trkpt>
      <trkpt lat="44.97968" lon="4.23561">
        <ele>1138</ele>
        <time>2021-06-03T06:44:21Z</time>
      </trkpt>
      <trkpt lat="44.97956" lon="4.23575">
        <ele>1137</ele>
        <time>2021-06-03T06:44:24Z</time>
      </trkpt>
      <trkpt lat="44.97946" lon="4.23585">
        <ele>1136</ele>
        <time>2021-06-03T06:44:26Z</time>
      </trkpt>
      <trkpt lat="44.97931" lon="4.23597">
        <ele>1136</ele>
        <time>2021-06-03T06:44:29Z</time>
      </trkpt>
      <trkpt lat="44.97897" lon="4.23612">
        <ele>1135</ele>
        <time>2021-06-03T06:44:35Z</time>
      </trkpt>
      <trkpt lat="44.97832" lon="4.23618">
        <ele>1136</ele>
        <time>2021-06-03T06:44:47Z</time>
      </trkpt>
      <trkpt lat="44.97812" lon="4.2362">
        <ele>1135</ele>
        <time>2021-06-03T06:44:50Z</time>
      </trkpt>
      <trkpt lat="44.9779" lon="4.23623">
        <ele>1134</ele>
        <time>2021-06-03T06:44:54Z</time>
      </trkpt>
      <trkpt lat="44.97773" lon="4.23627">
        <ele>1133</ele>
        <time>2021-06-03T06:44:57Z</time>
      </trkpt>
      <trkpt lat="44.9776" lon="4.23635">
        <ele>1132</ele>
        <time>2021-06-03T06:45:00Z</time>
      </trkpt>
      <trkpt lat="44.97752" lon="4.23645">
        <ele>1131</ele>
        <time>2021-06-03T06:45:02Z</time>
      </trkpt>
      <trkpt lat="44.97745" lon="4.23658">
        <ele>1130</ele>
        <time>2021-06-03T06:45:04Z</time>
      </trkpt>
      <trkpt lat="44.97728" lon="4.23705">
        <ele>1130</ele>
        <time>2021-06-03T06:45:10Z</time>
      </trkpt>
      <trkpt lat="44.97723" lon="4.23722">
        <ele>1131</ele>
        <time>2021-06-03T06:45:13Z</time>
      </trkpt>
      <trkpt lat="44.97718" lon="4.23736">
        <ele>1131</ele>
        <time>2021-06-03T06:45:15Z</time>
      </trkpt>
      <trkpt lat="44.97718" lon="4.23746">
        <ele>1131</ele>
        <time>2021-06-03T06:45:16Z</time>
      </trkpt>
      <trkpt lat="44.97721" lon="4.23755">
        <ele>1132</ele>
        <time>2021-06-03T06:45:17Z</time>
      </trkpt>
      <trkpt lat="44.97728" lon="4.23764">
        <ele>1132</ele>
        <time>2021-06-03T06:45:19Z</time>
      </trkpt>
      <trkpt lat="44.97761" lon="4.23785">
        <ele>1130</ele>
        <time>2021-06-03T06:45:25Z</time>
      </trkpt>
      <trkpt lat="44.97819" lon="4.23818">
        <ele>1128</ele>
        <time>2021-06-03T06:45:36Z</time>
      </trkpt>
      <trkpt lat="44.97845" lon="4.23826">
        <ele>1127</ele>
        <time>2021-06-03T06:45:41Z</time>
      </trkpt>
      <trkpt lat="44.97865" lon="4.23829">
        <ele>1127</ele>
        <time>2021-06-03T06:45:45Z</time>
      </trkpt>
      <trkpt lat="44.9792" lon="4.23827">
        <ele>1125</ele>
        <time>2021-06-03T06:45:55Z</time>
      </trkpt>
      <trkpt lat="44.97958" lon="4.23823">
        <ele>1123</ele>
        <time>2021-06-03T06:46:01Z</time>
      </trkpt>
      <trkpt lat="44.97995" lon="4.23815">
        <ele>1122</ele>
        <time>2021-06-03T06:46:08Z</time>
      </trkpt>
      <trkpt lat="44.98082" lon="4.23786">
        <ele>1117</ele>
        <time>2021-06-03T06:46:24Z</time>
      </trkpt>
      <trkpt lat="44.98101" lon="4.23783">
        <ele>1116</ele>
        <time>2021-06-03T06:46:27Z</time>
      </trkpt>
      <trkpt lat="44.98119" lon="4.23783">
        <ele>1115</ele>
        <time>2021-06-03T06:46:30Z</time>
      </trkpt>
      <trkpt lat="44.98135" lon="4.23786">
        <ele>1114</ele>
        <time>2021-06-03T06:46:33Z</time>
      </trkpt>
      <trkpt lat="44.98163" lon="4.23798">
        <ele>1114</ele>
        <time>2021-06-03T06:46:39Z</time>
      </trkpt>
      <trkpt lat="44.98185" lon="4.2381">
        <ele>1115</ele>
        <time>2021-06-03T06:46:43Z</time>
      </trkpt>
      <trkpt lat="44.98222" lon="4.23842">
        <ele>1117</ele>
        <time>2021-06-03T06:46:50Z</time>
      </trkpt>
      <trkpt lat="44.98233" lon="4.23847">
        <ele>1117</ele>
        <time>2021-06-03T06:46:53Z</time>
      </trkpt>
      <trkpt lat="44.98244" lon="4.23848">
        <ele>1116</ele>
        <time>2021-06-03T06:46:55Z</time>
      </trkpt>
      <trkpt lat="44.98261" lon="4.23845">
        <ele>1116</ele>
        <time>2021-06-03T06:46:58Z</time>
      </trkpt>
      <trkpt lat="44.98388" lon="4.23793">
        <ele>1108</ele>
        <time>2021-06-03T06:47:21Z</time>
      </trkpt>
      <trkpt lat="44.98404" lon="4.23791">
        <ele>1107</ele>
        <time>2021-06-03T06:47:24Z</time>
      </trkpt>
      <trkpt lat="44.98417" lon="4.23792">
        <ele>1107</ele>
        <time>2021-06-03T06:47:26Z</time>
      </trkpt>
      <trkpt lat="44.98431" lon="4.23798">
        <ele>1106</ele>
        <time>2021-06-03T06:47:29Z</time>
      </trkpt>
      <trkpt lat="44.98443" lon="4.23807">
        <ele>1106</ele>
        <time>2021-06-03T06:47:31Z</time>
      </trkpt>
      <trkpt lat="44.98478" lon="4.23847">
        <ele>1104</ele>
        <time>2021-06-03T06:47:39Z</time>
      </trkpt>
      <trkpt lat="44.98508" lon="4.23872">
        <ele>1102</ele>
        <time>2021-06-03T06:47:45Z</time>
      </trkpt>
      <trkpt lat="44.98522" lon="4.23878">
        <ele>1102</ele>
        <time>2021-06-03T06:47:48Z</time>
      </trkpt>
      <trkpt lat="44.9854" lon="4.23883">
        <ele>1102</ele>
        <time>2021-06-03T06:47:51Z</time>
      </trkpt>
      <trkpt lat="44.98578" lon="4.23888">
        <ele>1101</ele>
        <time>2021-06-03T06:47:58Z</time>
      </trkpt>
      <trkpt lat="44.98598" lon="4.23894">
        <ele>1100</ele>
        <time>2021-06-03T06:48:02Z</time>
      </trkpt>
      <trkpt lat="44.98778" lon="4.23952">
        <ele>1093</ele>
        <time>2021-06-03T06:48:35Z</time>
      </trkpt>
      <trkpt lat="44.98789" lon="4.23959">
        <ele>1093</ele>
        <time>2021-06-03T06:48:37Z</time>
      </trkpt>
      <trkpt lat="44.98824" lon="4.23992">
        <ele>1092</ele>
        <time>2021-06-03T06:48:44Z</time>
      </trkpt>
      <trkpt lat="44.98906" lon="4.24084">
        <ele>1089</ele>
        <time>2021-06-03T06:49:03Z</time>
      </trkpt>
      <trkpt lat="44.98926" lon="4.24103">
        <ele>1088</ele>
        <time>2021-06-03T06:49:07Z</time>
      </trkpt>
      <trkpt lat="44.99002" lon="4.24171">
        <ele>1085</ele>
        <time>2021-06-03T06:49:23Z</time>
      </trkpt>
      <trkpt lat="44.99014" lon="4.24177">
        <ele>1085</ele>
        <time>2021-06-03T06:49:25Z</time>
      </trkpt>
      <trkpt lat="44.99023" lon="4.24179">
        <ele>1084</ele>
        <time>2021-06-03T06:49:27Z</time>
      </trkpt>
      <trkpt lat="44.99036" lon="4.24178">
        <ele>1083</ele>
        <time>2021-06-03T06:49:29Z</time>
      </trkpt>
      <trkpt lat="44.99051" lon="4.24174">
        <ele>1081</ele>
        <time>2021-06-03T06:49:32Z</time>
      </trkpt>
      <trkpt lat="44.99075" lon="4.24167">
        <ele>1079</ele>
        <time>2021-06-03T06:49:36Z</time>
      </trkpt>
      <trkpt lat="44.99123" lon="4.24153">
        <ele>1078</ele>
        <time>2021-06-03T06:49:45Z</time>
      </trkpt>
      <trkpt lat="44.99141" lon="4.24145">
        <ele>1079</ele>
        <time>2021-06-03T06:49:49Z</time>
      </trkpt>
      <trkpt lat="44.99156" lon="4.24133">
        <ele>1079</ele>
        <time>2021-06-03T06:49:52Z</time>
      </trkpt>
      <trkpt lat="44.99223" lon="4.24057">
        <ele>1082</ele>
        <time>2021-06-03T06:50:07Z</time>
      </trkpt>
      <trkpt lat="44.99242" lon="4.24038">
        <ele>1082</ele>
        <time>2021-06-03T06:50:11Z</time>
      </trkpt>
      <trkpt lat="44.99258" lon="4.24026">
        <ele>1082</ele>
        <time>2021-06-03T06:50:14Z</time>
      </trkpt>
      <trkpt lat="44.99278" lon="4.24015">
        <ele>1082</ele>
        <time>2021-06-03T06:50:18Z</time>
      </trkpt>
      <trkpt lat="44.99376" lon="4.23978">
        <ele>1083</ele>
        <time>2021-06-03T06:50:36Z</time>
      </trkpt>
      <trkpt lat="44.99413" lon="4.23966">
        <ele>1084</ele>
        <time>2021-06-03T06:50:43Z</time>
      </trkpt>
      <trkpt lat="44.99431" lon="4.23962">
        <ele>1085</ele>
        <time>2021-06-03T06:50:46Z</time>
      </trkpt>
      <trkpt lat="44.99465" lon="4.23961">
        <ele>1086</ele>
        <time>2021-06-03T06:50:52Z</time>
      </trkpt>
      <trkpt lat="44.99483" lon="4.23964">
        <ele>1086</ele>
        <time>2021-06-03T06:50:55Z</time>
      </trkpt>
      <trkpt lat="44.99498" lon="4.23972">
        <ele>1086</ele>
        <time>2021-06-03T06:50:58Z</time>
      </trkpt>
      <trkpt lat="44.99511" lon="4.2399">
        <ele>1085</ele>
        <time>2021-06-03T06:51:01Z</time>
      </trkpt>
      <trkpt lat="44.9954" lon="4.24039">
        <ele>1083</ele>
        <time>2021-06-03T06:51:09Z</time>
      </trkpt>
      <trkpt lat="44.99564" lon="4.24075">
        <ele>1081</ele>
        <time>2021-06-03T06:51:16Z</time>
      </trkpt>
      <trkpt lat="44.99578" lon="4.24092">
        <ele>1081</ele>
        <time>2021-06-03T06:51:19Z</time>
      </trkpt>
      <trkpt lat="44.99594" lon="4.24107">
        <ele>1081</ele>
        <time>2021-06-03T06:51:22Z</time>
      </trkpt>
      <trkpt lat="44.99611" lon="4.24121">
        <ele>1081</ele>
        <time>2021-06-03T06:51:26Z</time>
      </trkpt>
      <trkpt lat="44.99666" lon="4.2415">
        <ele>1084</ele>
        <time>2021-06-03T06:51:36Z</time>
      </trkpt>
      <trkpt lat="44.99677" lon="4.24152">
        <ele>1084</ele>
        <time>2021-06-03T06:51:38Z</time>
      </trkpt>
      <trkpt lat="44.99698" lon="4.24151">
        <ele>1084</ele>
        <time>2021-06-03T06:51:42Z</time>
      </trkpt>
      <trkpt lat="44.99757" lon="4.24142">
        <ele>1085</ele>
        <time>2021-06-03T06:51:53Z</time>
      </trkpt>
      <trkpt lat="44.99793" lon="4.2413">
        <ele>1084</ele>
        <time>2021-06-03T06:51:59Z</time>
      </trkpt>
      <trkpt lat="44.99835" lon="4.24109">
        <ele>1083</ele>
        <time>2021-06-03T06:52:07Z</time>
      </trkpt>
      <trkpt lat="44.99845" lon="4.24099">
        <ele>1083</ele>
        <time>2021-06-03T06:52:09Z</time>
      </trkpt>
      <trkpt lat="44.99856" lon="4.24087">
        <ele>1083</ele>
        <time>2021-06-03T06:52:12Z</time>
      </trkpt>
      <trkpt lat="44.99881" lon="4.24049">
        <ele>1084</ele>
        <time>2021-06-03T06:52:18Z</time>
      </trkpt>
      <trkpt lat="44.99894" lon="4.24034">
        <ele>1083</ele>
        <time>2021-06-03T06:52:21Z</time>
      </trkpt>
      <trkpt lat="44.99908" lon="4.24021">
        <ele>1083</ele>
        <time>2021-06-03T06:52:24Z</time>
      </trkpt>
      <trkpt lat="44.99924" lon="4.24011">
        <ele>1082</ele>
        <time>2021-06-03T06:52:27Z</time>
      </trkpt>
      <trkpt lat="44.99939" lon="4.24005">
        <ele>1081</ele>
        <time>2021-06-03T06:52:30Z</time>
      </trkpt>
      <trkpt lat="44.99961" lon="4.24002">
        <ele>1079</ele>
        <time>2021-06-03T06:52:34Z</time>
      </trkpt>
      <trkpt lat="45.00188" lon="4.2398">
        <ele>1067</ele>
        <time>2021-06-03T06:53:15Z</time>
      </trkpt>
      <trkpt lat="45.00222" lon="4.23981">
        <ele>1067</ele>
        <time>2021-06-03T06:53:21Z</time>
      </trkpt>
      <trkpt lat="45.00447" lon="4.2403">
        <ele>1069</ele>
        <time>2021-06-03T06:54:01Z</time>
      </trkpt>
      <trkpt lat="45.00515" lon="4.24043">
        <ele>1068</ele>
        <time>2021-06-03T06:54:13Z</time>
      </trkpt>
      <trkpt lat="45.00625" lon="4.2405">
        <ele>1065</ele>
        <time>2021-06-03T06:54:33Z</time>
      </trkpt>
      <trkpt lat="45.00639" lon="4.24051">
        <ele>1065</ele>
        <time>2021-06-03T06:54:35Z</time>
      </trkpt>
      <trkpt lat="45.00829" lon="4.24063">
        <ele>1065</ele>
        <time>2021-06-03T06:55:09Z</time>
      </trkpt>
      <trkpt lat="45.00857" lon="4.24067">
        <ele>1064</ele>
        <time>2021-06-03T06:55:14Z</time>
      </trkpt>
      <trkpt lat="45.00917" lon="4.24083">
        <ele>1060</ele>
        <time>2021-06-03T06:55:25Z</time>
      </trkpt>
      <trkpt lat="45.01002" lon="4.24115">
        <ele>1062</ele>
        <time>2021-06-03T06:55:41Z</time>
      </trkpt>
      <trkpt lat="45.01057" lon="4.24141">
        <ele>1066</ele>
        <time>2021-06-03T06:55:51Z</time>
      </trkpt>
      <trkpt lat="45.01162" lon="4.24198">
        <ele>1063</ele>
        <time>2021-06-03T06:56:11Z</time>
      </trkpt>
      <trkpt lat="45.01195" lon="4.24208">
        <ele>1061</ele>
        <time>2021-06-03T06:56:17Z</time>
      </trkpt>
      <trkpt lat="45.01215" lon="4.24211">
        <ele>1060</ele>
        <time>2021-06-03T06:56:21Z</time>
      </trkpt>
      <trkpt lat="45.01233" lon="4.24209">
        <ele>1059</ele>
        <time>2021-06-03T06:56:24Z</time>
      </trkpt>
      <trkpt lat="45.01251" lon="4.24205">
        <ele>1059</ele>
        <time>2021-06-03T06:56:27Z</time>
      </trkpt>
      <trkpt lat="45.01283" lon="4.24186">
        <ele>1057</ele>
        <time>2021-06-03T06:56:33Z</time>
      </trkpt>
      <trkpt lat="45.013" lon="4.24168">
        <ele>1057</ele>
        <time>2021-06-03T06:56:37Z</time>
      </trkpt>
      <trkpt lat="45.01599" lon="4.23785">
        <ele>1054</ele>
        <time>2021-06-03T06:57:49Z</time>
      </trkpt>
      <trkpt lat="45.01606" lon="4.23781">
        <ele>1054</ele>
        <time>2021-06-03T06:57:50Z</time>
      </trkpt>
      <trkpt lat="45.01617" lon="4.2378">
        <ele>1054</ele>
        <time>2021-06-03T06:57:52Z</time>
      </trkpt>
      <trkpt lat="45.01623" lon="4.23781">
        <ele>1054</ele>
        <time>2021-06-03T06:57:53Z</time>
      </trkpt>
      <trkpt lat="45.01644" lon="4.23798">
        <ele>1054</ele>
        <time>2021-06-03T06:57:58Z</time>
      </trkpt>
      <trkpt lat="45.01729" lon="4.23867">
        <ele>1058</ele>
        <time>2021-06-03T06:58:15Z</time>
      </trkpt>
      <trkpt lat="45.01741" lon="4.23879">
        <ele>1059</ele>
        <time>2021-06-03T06:58:18Z</time>
      </trkpt>
      <trkpt lat="45.01751" lon="4.23893">
        <ele>1060</ele>
        <time>2021-06-03T06:58:20Z</time>
      </trkpt>
      <trkpt lat="45.01768" lon="4.23923">
        <ele>1061</ele>
        <time>2021-06-03T06:58:25Z</time>
      </trkpt>
      <trkpt lat="45.01783" lon="4.23946">
        <ele>1062</ele>
        <time>2021-06-03T06:58:29Z</time>
      </trkpt>
      <trkpt lat="45.01795" lon="4.23958">
        <ele>1063</ele>
        <time>2021-06-03T06:58:32Z</time>
      </trkpt>
      <trkpt lat="45.01801" lon="4.23963">
        <ele>1063</ele>
        <time>2021-06-03T06:58:33Z</time>
      </trkpt>
      <trkpt lat="45.01834" lon="4.23984">
        <ele>1066</ele>
        <time>2021-06-03T06:58:39Z</time>
      </trkpt>
      <trkpt lat="45.01854" lon="4.23999">
        <ele>1068</ele>
        <time>2021-06-03T06:58:43Z</time>
      </trkpt>
      <trkpt lat="45.01872" lon="4.24016">
        <ele>1069</ele>
        <time>2021-06-03T06:58:47Z</time>
      </trkpt>
      <trkpt lat="45.01902" lon="4.24048">
        <ele>1072</ele>
        <time>2021-06-03T06:58:54Z</time>
      </trkpt>
      <trkpt lat="45.01978" lon="4.24124">
        <ele>1078</ele>
        <time>2021-06-03T06:59:10Z</time>
      </trkpt>
      <trkpt lat="45.01993" lon="4.24143">
        <ele>1080</ele>
        <time>2021-06-03T06:59:14Z</time>
      </trkpt>
      <trkpt lat="45.02009" lon="4.24167">
        <ele>1082</ele>
        <time>2021-06-03T06:59:18Z</time>
      </trkpt>
      <trkpt lat="45.02083" lon="4.24323">
        <ele>1088</ele>
        <time>2021-06-03T06:59:42Z</time>
      </trkpt>
      <trkpt lat="45.0209" lon="4.24332">
        <ele>1089</ele>
        <time>2021-06-03T06:59:43Z</time>
      </trkpt>
      <trkpt lat="45.02103" lon="4.24346">
        <ele>1089</ele>
        <time>2021-06-03T06:59:46Z</time>
      </trkpt>
      <trkpt lat="45.02118" lon="4.24356">
        <ele>1089</ele>
        <time>2021-06-03T06:59:49Z</time>
      </trkpt>
      <trkpt lat="45.02135" lon="4.24364">
        <ele>1090</ele>
        <time>2021-06-03T06:59:52Z</time>
      </trkpt>
      <trkpt lat="45.02153" lon="4.24369">
        <ele>1091</ele>
        <time>2021-06-03T06:59:56Z</time>
      </trkpt>
      <trkpt lat="45.0217" lon="4.2437">
        <ele>1092</ele>
        <time>2021-06-03T06:59:59Z</time>
      </trkpt>
      <trkpt lat="45.02175" lon="4.24369">
        <ele>1092</ele>
        <time>2021-06-03T07:00:00Z</time>
      </trkpt>
      <trkpt lat="45.02187" lon="4.24366">
        <ele>1093</ele>
        <time>2021-06-03T07:00:02Z</time>
      </trkpt>
      <trkpt lat="45.02206" lon="4.24358">
        <ele>1094</ele>
        <time>2021-06-03T07:00:05Z</time>
      </trkpt>
      <trkpt lat="45.02271" lon="4.24317">
        <ele>1100</ele>
        <time>2021-06-03T07:00:18Z</time>
      </trkpt>
      <trkpt lat="45.02291" lon="4.24308">
        <ele>1102</ele>
        <time>2021-06-03T07:00:22Z</time>
      </trkpt>
      <trkpt lat="45.0231" lon="4.24304">
        <ele>1103</ele>
        <time>2021-06-03T07:00:25Z</time>
      </trkpt>
      <trkpt lat="45.02326" lon="4.24306">
        <ele>1104</ele>
        <time>2021-06-03T07:00:28Z</time>
      </trkpt>
      <trkpt lat="45.02344" lon="4.24311">
        <ele>1105</ele>
        <time>2021-06-03T07:00:31Z</time>
      </trkpt>
      <trkpt lat="45.02359" lon="4.2432">
        <ele>1105</ele>
        <time>2021-06-03T07:00:34Z</time>
      </trkpt>
      <trkpt lat="45.02394" lon="4.24351">
        <ele>1107</ele>
        <time>2021-06-03T07:00:41Z</time>
      </trkpt>
      <trkpt lat="45.02479" lon="4.24464">
        <ele>1109</ele>
        <time>2021-06-03T07:01:02Z</time>
      </trkpt>
      <trkpt lat="45.02494" lon="4.24481">
        <ele>1110</ele>
        <time>2021-06-03T07:01:06Z</time>
      </trkpt>
      <trkpt lat="45.02513" lon="4.24495">
        <ele>1111</ele>
        <time>2021-06-03T07:01:09Z</time>
      </trkpt>
      <trkpt lat="45.02532" lon="4.24505">
        <ele>1112</ele>
        <time>2021-06-03T07:01:13Z</time>
      </trkpt>
      <trkpt lat="45.02647" lon="4.24542">
        <ele>1115</ele>
        <time>2021-06-03T07:01:34Z</time>
      </trkpt>
      <trkpt lat="45.02683" lon="4.24556">
        <ele>1115</ele>
        <time>2021-06-03T07:01:41Z</time>
      </trkpt>
      <trkpt lat="45.02729" lon="4.24583">
        <ele>1117</ele>
        <time>2021-06-03T07:01:50Z</time>
      </trkpt>
      <trkpt lat="45.02822" lon="4.24642">
        <ele>1118</ele>
        <time>2021-06-03T07:02:08Z</time>
      </trkpt>
      <trkpt lat="45.02842" lon="4.24651">
        <ele>1118</ele>
        <time>2021-06-03T07:02:11Z</time>
      </trkpt>
      <trkpt lat="45.02916" lon="4.24669">
        <ele>1120</ele>
        <time>2021-06-03T07:02:25Z</time>
      </trkpt>
      <trkpt lat="45.03176" lon="4.24787">
        <ele>1120</ele>
        <time>2021-06-03T07:03:13Z</time>
      </trkpt>
      <trkpt lat="45.0319" lon="4.24792">
        <ele>1120</ele>
        <time>2021-06-03T07:03:16Z</time>
      </trkpt>
      <trkpt lat="45.03216" lon="4.24796">
        <ele>1119</ele>
        <time>2021-06-03T07:03:21Z</time>
      </trkpt>
      <trkpt lat="45.03249" lon="4.24801">
        <ele>1119</ele>
        <time>2021-06-03T07:03:27Z</time>
      </trkpt>
      <trkpt lat="45.03277" lon="4.24807">
        <ele>1118</ele>
        <time>2021-06-03T07:03:32Z</time>
      </trkpt>
      <trkpt lat="45.0329" lon="4.24815">
        <ele>1117</ele>
        <time>2021-06-03T07:03:34Z</time>
      </trkpt>
      <trkpt lat="45.03314" lon="4.2483">
        <ele>1116</ele>
        <time>2021-06-03T07:03:39Z</time>
      </trkpt>
      <trkpt lat="45.03318" lon="4.24833">
        <ele>1116</ele>
        <time>2021-06-03T07:03:40Z</time>
      </trkpt>
      <trkpt lat="45.03317" lon="4.24811">
        <ele>1116</ele>
        <time>2021-06-03T07:03:42Z</time>
      </trkpt>
      <trkpt lat="45.03304" lon="4.24816">
        <ele>1117</ele>
        <time>2021-06-03T07:03:45Z</time>
      </trkpt>
      <trkpt lat="45.0329" lon="4.24815">
        <ele>1117</ele>
        <time>2021-06-03T07:03:47Z</time>
      </trkpt>
      <trkpt lat="45.03318" lon="4.24833">
        <ele>1116</ele>
        <time>2021-06-03T07:03:53Z</time>
      </trkpt>
      <trkpt lat="45.03328" lon="4.25265">
        <ele>1121</ele>
        <time>2021-06-03T07:04:47Z</time>
      </trkpt>
      <trkpt lat="45.03327" lon="4.253">
        <ele>1120</ele>
        <time>2021-06-03T07:04:51Z</time>
      </trkpt>
      <trkpt lat="45.03324" lon="4.25335">
        <ele>1120</ele>
        <time>2021-06-03T07:04:56Z</time>
      </trkpt>
      <trkpt lat="45.03313" lon="4.25401">
        <ele>1118</ele>
        <time>2021-06-03T07:05:04Z</time>
      </trkpt>
      <trkpt lat="45.03319" lon="4.25412">
        <ele>1118</ele>
        <time>2021-06-03T07:05:06Z</time>
      </trkpt>
      <trkpt lat="45.0332" lon="4.25415">
        <ele>1118</ele>
        <time>2021-06-03T07:05:07Z</time>
      </trkpt>
      <trkpt lat="45.03331" lon="4.25434">
        <ele>1117</ele>
        <time>2021-06-03T07:05:10Z</time>
      </trkpt>
      <trkpt lat="45.03351" lon="4.25461">
        <ele>1116</ele>
        <time>2021-06-03T07:05:15Z</time>
      </trkpt>
      <trkpt lat="45.03363" lon="4.25471">
        <ele>1116</ele>
        <time>2021-06-03T07:05:17Z</time>
      </trkpt>
      <trkpt lat="45.03377" lon="4.25478">
        <ele>1116</ele>
        <time>2021-06-03T07:05:20Z</time>
      </trkpt>
      <trkpt lat="45.03395" lon="4.25483">
        <ele>1117</ele>
        <time>2021-06-03T07:05:23Z</time>
      </trkpt>
      <trkpt lat="45.0341" lon="4.25486">
        <ele>1117</ele>
        <time>2021-06-03T07:05:26Z</time>
      </trkpt>
      <trkpt lat="45.03444" lon="4.25489">
        <ele>1117</ele>
        <time>2021-06-03T07:05:32Z</time>
      </trkpt>
      <trkpt lat="45.03457" lon="4.25491">
        <ele>1117</ele>
        <time>2021-06-03T07:05:34Z</time>
      </trkpt>
      <trkpt lat="45.03466" lon="4.25496">
        <ele>1117</ele>
        <time>2021-06-03T07:05:36Z</time>
      </trkpt>
      <trkpt lat="45.03479" lon="4.25505">
        <ele>1117</ele>
        <time>2021-06-03T07:05:38Z</time>
      </trkpt>
      <trkpt lat="45.0352" lon="4.25537">
        <ele>1115</ele>
        <time>2021-06-03T07:05:47Z</time>
      </trkpt>
      <trkpt lat="45.03543" lon="4.25549">
        <ele>1113</ele>
        <time>2021-06-03T07:05:51Z</time>
      </trkpt>
      <trkpt lat="45.03557" lon="4.2556">
        <ele>1112</ele>
        <time>2021-06-03T07:05:54Z</time>
      </trkpt>
      <trkpt lat="45.03568" lon="4.25572">
        <ele>1111</ele>
        <time>2021-06-03T07:05:56Z</time>
      </trkpt>
      <trkpt lat="45.03578" lon="4.25586">
        <ele>1109</ele>
        <time>2021-06-03T07:05:59Z</time>
      </trkpt>
      <trkpt lat="45.03615" lon="4.25654">
        <ele>1105</ele>
        <time>2021-06-03T07:06:10Z</time>
      </trkpt>
      <trkpt lat="45.03628" lon="4.25676">
        <ele>1104</ele>
        <time>2021-06-03T07:06:13Z</time>
      </trkpt>
      <trkpt lat="45.03683" lon="4.25743">
        <ele>1099</ele>
        <time>2021-06-03T07:06:26Z</time>
      </trkpt>
      <trkpt lat="45.03793" lon="4.25868">
        <ele>1090</ele>
        <time>2021-06-03T07:06:51Z</time>
      </trkpt>
      <trkpt lat="45.03809" lon="4.25884">
        <ele>1089</ele>
        <time>2021-06-03T07:06:55Z</time>
      </trkpt>
      <trkpt lat="45.03853" lon="4.25922">
        <ele>1087</ele>
        <time>2021-06-03T07:07:04Z</time>
      </trkpt>
      <trkpt lat="45.0392" lon="4.25994">
        <ele>1084</ele>
        <time>2021-06-03T07:07:19Z</time>
      </trkpt>
      <trkpt lat="45.03938" lon="4.26025">
        <ele>1083</ele>
        <time>2021-06-03T07:07:24Z</time>
      </trkpt>
      <trkpt lat="45.03957" lon="4.26071">
        <ele>1081</ele>
        <time>2021-06-03T07:07:31Z</time>
      </trkpt>
      <trkpt lat="45.03968" lon="4.2609">
        <ele>1081</ele>
        <time>2021-06-03T07:07:34Z</time>
      </trkpt>
      <trkpt lat="45.03985" lon="4.26114">
        <ele>1080</ele>
        <time>2021-06-03T07:07:38Z</time>
      </trkpt>
      <trkpt lat="45.04052" lon="4.26208">
        <ele>1078</ele>
        <time>2021-06-03T07:07:55Z</time>
      </trkpt>
      <trkpt lat="45.04114" lon="4.26295">
        <ele>1076</ele>
        <time>2021-06-03T07:08:10Z</time>
      </trkpt>
      <trkpt lat="45.04168" lon="4.26377">
        <ele>1075</ele>
        <time>2021-06-03T07:08:24Z</time>
      </trkpt>
      <trkpt lat="45.04175" lon="4.26388">
        <ele>1075</ele>
        <time>2021-06-03T07:08:26Z</time>
      </trkpt>
      <trkpt lat="45.04202" lon="4.2643">
        <ele>1075</ele>
        <time>2021-06-03T07:08:33Z</time>
      </trkpt>
      <trkpt lat="45.04239" lon="4.26484">
        <ele>1074</ele>
        <time>2021-06-03T07:08:43Z</time>
      </trkpt>
      <trkpt lat="45.04248" lon="4.26497">
        <ele>1074</ele>
        <time>2021-06-03T07:08:45Z</time>
      </trkpt>
      <trkpt lat="45.04252" lon="4.26503">
        <ele>1074</ele>
        <time>2021-06-03T07:08:46Z</time>
      </trkpt>
      <trkpt lat="45.0426" lon="4.26513">
        <ele>1074</ele>
        <time>2021-06-03T07:08:48Z</time>
      </trkpt>
      <trkpt lat="45.04267" lon="4.26517">
        <ele>1073</ele>
        <time>2021-06-03T07:08:49Z</time>
      </trkpt>
      <trkpt lat="45.04281" lon="4.26526">
        <ele>1073</ele>
        <time>2021-06-03T07:08:52Z</time>
      </trkpt>
      <trkpt lat="45.04321" lon="4.26543">
        <ele>1071</ele>
        <time>2021-06-03T07:09:00Z</time>
      </trkpt>
      <trkpt lat="45.04387" lon="4.26593">
        <ele>1067</ele>
        <time>2021-06-03T07:09:13Z</time>
      </trkpt>
      <trkpt lat="45.04424" lon="4.26616">
        <ele>1063</ele>
        <time>2021-06-03T07:09:20Z</time>
      </trkpt>
      <trkpt lat="45.04834" lon="4.26849">
        <ele>1045</ele>
        <time>2021-06-03T07:10:39Z</time>
      </trkpt>
      <trkpt lat="45.04843" lon="4.26855">
        <ele>1044</ele>
        <time>2021-06-03T07:10:40Z</time>
      </trkpt>
      <trkpt lat="45.04852" lon="4.26863">
        <ele>1044</ele>
        <time>2021-06-03T07:10:42Z</time>
      </trkpt>
      <trkpt lat="45.04855" lon="4.26867">
        <ele>1044</ele>
        <time>2021-06-03T07:10:43Z</time>
      </trkpt>
      <trkpt lat="45.04861" lon="4.26882">
        <ele>1044</ele>
        <time>2021-06-03T07:10:45Z</time>
      </trkpt>
      <trkpt lat="45.04868" lon="4.26908">
        <ele>1043</ele>
        <time>2021-06-03T07:10:49Z</time>
      </trkpt>
      <trkpt lat="45.04896" lon="4.27047">
        <ele>1039</ele>
        <time>2021-06-03T07:11:07Z</time>
      </trkpt>
      <trkpt lat="45.04926" lon="4.27182">
        <ele>1038</ele>
        <time>2021-06-03T07:11:25Z</time>
      </trkpt>
      <trkpt lat="45.04935" lon="4.27212">
        <ele>1038</ele>
        <time>2021-06-03T07:11:29Z</time>
      </trkpt>
      <trkpt lat="45.04936" lon="4.27215">
        <ele>1038</ele>
        <time>2021-06-03T07:11:29Z</time>
      </trkpt>
      <trkpt lat="45.05013" lon="4.27416">
        <ele>1036</ele>
        <time>2021-06-03T07:11:58Z</time>
      </trkpt>
      <trkpt lat="45.05034" lon="4.27468">
        <ele>1034</ele>
        <time>2021-06-03T07:12:06Z</time>
      </trkpt>
      <trkpt lat="45.05063" lon="4.27546">
        <ele>1032</ele>
        <time>2021-06-03T07:12:17Z</time>
      </trkpt>
      <trkpt lat="45.05076" lon="4.27599">
        <ele>1030</ele>
        <time>2021-06-03T07:12:24Z</time>
      </trkpt>
      <trkpt lat="45.05087" lon="4.2765">
        <ele>1026</ele>
        <time>2021-06-03T07:12:30Z</time>
      </trkpt>
      <trkpt lat="45.05095" lon="4.27684">
        <ele>1024</ele>
        <time>2021-06-03T07:12:35Z</time>
      </trkpt>
      <trkpt lat="45.05117" lon="4.27781">
        <ele>1020</ele>
        <time>2021-06-03T07:12:48Z</time>
      </trkpt>
      <trkpt lat="45.05119" lon="4.27801">
        <ele>1019</ele>
        <time>2021-06-03T07:12:50Z</time>
      </trkpt>
      <trkpt lat="45.0512" lon="4.2782">
        <ele>1019</ele>
        <time>2021-06-03T07:12:53Z</time>
      </trkpt>
      <trkpt lat="45.05119" lon="4.27836">
        <ele>1018</ele>
        <time>2021-06-03T07:12:55Z</time>
      </trkpt>
      <trkpt lat="45.05115" lon="4.27854">
        <ele>1018</ele>
        <time>2021-06-03T07:12:57Z</time>
      </trkpt>
      <trkpt lat="45.05108" lon="4.27878">
        <ele>1017</ele>
        <time>2021-06-03T07:13:00Z</time>
      </trkpt>
      <trkpt lat="45.05088" lon="4.27954">
        <ele>1016</ele>
        <time>2021-06-03T07:13:10Z</time>
      </trkpt>
      <trkpt lat="45.05054" lon="4.28078">
        <ele>1018</ele>
        <time>2021-06-03T07:13:27Z</time>
      </trkpt>
      <trkpt lat="45.05032" lon="4.28163">
        <ele>1012</ele>
        <time>2021-06-03T07:13:39Z</time>
      </trkpt>
      <trkpt lat="45.05031" lon="4.28174">
        <ele>1011</ele>
        <time>2021-06-03T07:13:40Z</time>
      </trkpt>
      <trkpt lat="45.0503" lon="4.28199">
        <ele>1011</ele>
        <time>2021-06-03T07:13:43Z</time>
      </trkpt>
      <trkpt lat="45.05032" lon="4.2822">
        <ele>1011</ele>
        <time>2021-06-03T07:13:46Z</time>
      </trkpt>
      <trkpt lat="45.05038" lon="4.28244">
        <ele>1011</ele>
        <time>2021-06-03T07:13:49Z</time>
      </trkpt>
      <trkpt lat="45.05045" lon="4.28264">
        <ele>1013</ele>
        <time>2021-06-03T07:13:52Z</time>
      </trkpt>
      <trkpt lat="45.05057" lon="4.28282">
        <ele>1014</ele>
        <time>2021-06-03T07:13:55Z</time>
      </trkpt>
      <trkpt lat="45.0507" lon="4.28298">
        <ele>1015</ele>
        <time>2021-06-03T07:13:58Z</time>
      </trkpt>
      <trkpt lat="45.05102" lon="4.28322">
        <ele>1015</ele>
        <time>2021-06-03T07:14:04Z</time>
      </trkpt>
      <trkpt lat="45.0512" lon="4.28339">
        <ele>1015</ele>
        <time>2021-06-03T07:14:08Z</time>
      </trkpt>
      <trkpt lat="45.05143" lon="4.2837">
        <ele>1014</ele>
        <time>2021-06-03T07:14:14Z</time>
      </trkpt>
      <trkpt lat="45.05169" lon="4.28412">
        <ele>1012</ele>
        <time>2021-06-03T07:14:21Z</time>
      </trkpt>
      <trkpt lat="45.0519" lon="4.28441">
        <ele>1011</ele>
        <time>2021-06-03T07:14:26Z</time>
      </trkpt>
      <trkpt lat="45.05202" lon="4.28456">
        <ele>1011</ele>
        <time>2021-06-03T07:14:29Z</time>
      </trkpt>
      <trkpt lat="45.05211" lon="4.28465">
        <ele>1011</ele>
        <time>2021-06-03T07:14:31Z</time>
      </trkpt>
      <trkpt lat="45.05231" lon="4.28487">
        <ele>1011</ele>
        <time>2021-06-03T07:14:35Z</time>
      </trkpt>
      <trkpt lat="45.05254" lon="4.28517">
        <ele>1012</ele>
        <time>2021-06-03T07:14:41Z</time>
      </trkpt>
      <trkpt lat="45.05267" lon="4.28532">
        <ele>1012</ele>
        <time>2021-06-03T07:14:44Z</time>
      </trkpt>
      <trkpt lat="45.05288" lon="4.28547">
        <ele>1011</ele>
        <time>2021-06-03T07:14:48Z</time>
      </trkpt>
      <trkpt lat="45.05343" lon="4.28561">
        <ele>1005</ele>
        <time>2021-06-03T07:14:58Z</time>
      </trkpt>
      <trkpt lat="45.05362" lon="4.28569">
        <ele>1003</ele>
        <time>2021-06-03T07:15:02Z</time>
      </trkpt>
      <trkpt lat="45.05377" lon="4.28579">
        <ele>1003</ele>
        <time>2021-06-03T07:15:05Z</time>
      </trkpt>
      <trkpt lat="45.05392" lon="4.28593">
        <ele>1003</ele>
        <time>2021-06-03T07:15:08Z</time>
      </trkpt>
      <trkpt lat="45.05409" lon="4.28618">
        <ele>1005</ele>
        <time>2021-06-03T07:15:12Z</time>
      </trkpt>
      <trkpt lat="45.05425" lon="4.28631">
        <ele>1005</ele>
        <time>2021-06-03T07:15:15Z</time>
      </trkpt>
      <trkpt lat="45.05443" lon="4.28641">
        <ele>1004</ele>
        <time>2021-06-03T07:15:19Z</time>
      </trkpt>
      <trkpt lat="45.05468" lon="4.28647">
        <ele>1001</ele>
        <time>2021-06-03T07:15:23Z</time>
      </trkpt>
      <trkpt lat="45.05513" lon="4.28656">
        <ele>995</ele>
        <time>2021-06-03T07:15:31Z</time>
      </trkpt>
      <trkpt lat="45.0553" lon="4.2866">
        <ele>994</ele>
        <time>2021-06-03T07:15:35Z</time>
      </trkpt>
      <trkpt lat="45.0555" lon="4.28669">
        <ele>993</ele>
        <time>2021-06-03T07:15:38Z</time>
      </trkpt>
      <trkpt lat="45.05561" lon="4.28677">
        <ele>991</ele>
        <time>2021-06-03T07:15:40Z</time>
      </trkpt>
      <trkpt lat="45.0557" lon="4.28687">
        <ele>990</ele>
        <time>2021-06-03T07:15:42Z</time>
      </trkpt>
      <trkpt lat="45.05578" lon="4.28705">
        <ele>989</ele>
        <time>2021-06-03T07:15:45Z</time>
      </trkpt>
      <trkpt lat="45.05583" lon="4.28723">
        <ele>988</ele>
        <time>2021-06-03T07:15:48Z</time>
      </trkpt>
      <trkpt lat="45.05588" lon="4.28755">
        <ele>986</ele>
        <time>2021-06-03T07:15:52Z</time>
      </trkpt>
      <trkpt lat="45.05589" lon="4.28784">
        <ele>983</ele>
        <time>2021-06-03T07:15:55Z</time>
      </trkpt>
      <trkpt lat="45.05587" lon="4.28817">
        <ele>980</ele>
        <time>2021-06-03T07:16:00Z</time>
      </trkpt>
      <trkpt lat="45.05577" lon="4.28862">
        <ele>979</ele>
        <time>2021-06-03T07:16:05Z</time>
      </trkpt>
      <trkpt lat="45.05576" lon="4.28883">
        <ele>979</ele>
        <time>2021-06-03T07:16:08Z</time>
      </trkpt>
      <trkpt lat="45.05579" lon="4.28905">
        <ele>978</ele>
        <time>2021-06-03T07:16:11Z</time>
      </trkpt>
      <trkpt lat="45.05582" lon="4.28921">
        <ele>977</ele>
        <time>2021-06-03T07:16:13Z</time>
      </trkpt>
      <trkpt lat="45.05581" lon="4.28945">
        <ele>975</ele>
        <time>2021-06-03T07:16:16Z</time>
      </trkpt>
      <trkpt lat="45.05579" lon="4.28964">
        <ele>974</ele>
        <time>2021-06-03T07:16:18Z</time>
      </trkpt>
      <trkpt lat="45.05573" lon="4.28983">
        <ele>973</ele>
        <time>2021-06-03T07:16:21Z</time>
      </trkpt>
      <trkpt lat="45.05556" lon="4.29021">
        <ele>972</ele>
        <time>2021-06-03T07:16:27Z</time>
      </trkpt>
      <trkpt lat="45.0555" lon="4.29034">
        <ele>971</ele>
        <time>2021-06-03T07:16:29Z</time>
      </trkpt>
      <trkpt lat="45.05546" lon="4.29045">
        <ele>971</ele>
        <time>2021-06-03T07:16:30Z</time>
      </trkpt>
      <trkpt lat="45.05524" lon="4.29095">
        <ele>970</ele>
        <time>2021-06-03T07:16:38Z</time>
      </trkpt>
      <trkpt lat="45.05514" lon="4.29123">
        <ele>970</ele>
        <time>2021-06-03T07:16:42Z</time>
      </trkpt>
      <trkpt lat="45.0551" lon="4.29142">
        <ele>969</ele>
        <time>2021-06-03T07:16:44Z</time>
      </trkpt>
      <trkpt lat="45.05511" lon="4.29164">
        <ele>967</ele>
        <time>2021-06-03T07:16:47Z</time>
      </trkpt>
      <trkpt lat="45.05516" lon="4.29182">
        <ele>966</ele>
        <time>2021-06-03T07:16:49Z</time>
      </trkpt>
      <trkpt lat="45.0552" lon="4.29188">
        <ele>966</ele>
        <time>2021-06-03T07:16:50Z</time>
      </trkpt>
      <trkpt lat="45.05524" lon="4.29195">
        <ele>965</ele>
        <time>2021-06-03T07:16:51Z</time>
      </trkpt>
      <trkpt lat="45.05531" lon="4.29207">
        <ele>964</ele>
        <time>2021-06-03T07:16:53Z</time>
      </trkpt>
      <trkpt lat="45.05546" lon="4.2922">
        <ele>963</ele>
        <time>2021-06-03T07:16:57Z</time>
      </trkpt>
      <trkpt lat="45.05558" lon="4.29228">
        <ele>962</ele>
        <time>2021-06-03T07:16:59Z</time>
      </trkpt>
      <trkpt lat="45.05601" lon="4.29243">
        <ele>960</ele>
        <time>2021-06-03T07:17:07Z</time>
      </trkpt>
      <trkpt lat="45.05613" lon="4.29251">
        <ele>960</ele>
        <time>2021-06-03T07:17:09Z</time>
      </trkpt>
      <trkpt lat="45.0562" lon="4.29259">
        <ele>960</ele>
        <time>2021-06-03T07:17:11Z</time>
      </trkpt>
      <trkpt lat="45.05625" lon="4.29266">
        <ele>960</ele>
        <time>2021-06-03T07:17:12Z</time>
      </trkpt>
      <trkpt lat="45.05634" lon="4.29289">
        <ele>960</ele>
        <time>2021-06-03T07:17:15Z</time>
      </trkpt>
      <trkpt lat="45.05637" lon="4.29302">
        <ele>960</ele>
        <time>2021-06-03T07:17:17Z</time>
      </trkpt>
      <trkpt lat="45.05645" lon="4.29327">
        <ele>960</ele>
        <time>2021-06-03T07:17:20Z</time>
      </trkpt>
      <trkpt lat="45.0568" lon="4.29411">
        <ele>957</ele>
        <time>2021-06-03T07:17:33Z</time>
      </trkpt>
      <trkpt lat="45.05689" lon="4.29437">
        <ele>957</ele>
        <time>2021-06-03T07:17:36Z</time>
      </trkpt>
      <trkpt lat="45.05723" lon="4.29528">
        <ele>958</ele>
        <time>2021-06-03T07:17:49Z</time>
      </trkpt>
      <trkpt lat="45.05742" lon="4.29582">
        <ele>957</ele>
        <time>2021-06-03T07:17:57Z</time>
      </trkpt>
      <trkpt lat="45.05748" lon="4.29606">
        <ele>955</ele>
        <time>2021-06-03T07:18:00Z</time>
      </trkpt>
      <trkpt lat="45.0575" lon="4.29631">
        <ele>953</ele>
        <time>2021-06-03T07:18:03Z</time>
      </trkpt>
      <trkpt lat="45.05748" lon="4.29658">
        <ele>952</ele>
        <time>2021-06-03T07:18:07Z</time>
      </trkpt>
      <trkpt lat="45.05743" lon="4.29694">
        <ele>952</ele>
        <time>2021-06-03T07:18:11Z</time>
      </trkpt>
      <trkpt lat="45.05736" lon="4.29727">
        <ele>953</ele>
        <time>2021-06-03T07:18:16Z</time>
      </trkpt>
      <trkpt lat="45.05734" lon="4.29739">
        <ele>954</ele>
        <time>2021-06-03T07:18:17Z</time>
      </trkpt>
      <trkpt lat="45.05733" lon="4.29758">
        <ele>954</ele>
        <time>2021-06-03T07:18:20Z</time>
      </trkpt>
      <trkpt lat="45.05738" lon="4.29783">
        <ele>953</ele>
        <time>2021-06-03T07:18:23Z</time>
      </trkpt>
      <trkpt lat="45.0576" lon="4.29833">
        <ele>948</ele>
        <time>2021-06-03T07:18:30Z</time>
      </trkpt>
      <trkpt lat="45.05763" lon="4.29853">
        <ele>947</ele>
        <time>2021-06-03T07:18:33Z</time>
      </trkpt>
      <trkpt lat="45.05764" lon="4.29877">
        <ele>947</ele>
        <time>2021-06-03T07:18:36Z</time>
      </trkpt>
      <trkpt lat="45.05759" lon="4.29905">
        <ele>947</ele>
        <time>2021-06-03T07:18:39Z</time>
      </trkpt>
      <trkpt lat="45.05733" lon="4.30017">
        <ele>950</ele>
        <time>2021-06-03T07:18:54Z</time>
      </trkpt>
      <trkpt lat="45.05732" lon="4.30035">
        <ele>949</ele>
        <time>2021-06-03T07:18:56Z</time>
      </trkpt>
      <trkpt lat="45.05738" lon="4.30061">
        <ele>945</ele>
        <time>2021-06-03T07:19:00Z</time>
      </trkpt>
      <trkpt lat="45.05749" lon="4.30074">
        <ele>941</ele>
        <time>2021-06-03T07:19:02Z</time>
      </trkpt>
      <trkpt lat="45.05801" lon="4.30108">
        <ele>937</ele>
        <time>2021-06-03T07:19:13Z</time>
      </trkpt>
      <trkpt lat="45.05808" lon="4.30112">
        <ele>937</ele>
        <time>2021-06-03T07:19:14Z</time>
      </trkpt>
      <trkpt lat="45.05821" lon="4.30119">
        <ele>937</ele>
        <time>2021-06-03T07:19:16Z</time>
      </trkpt>
      <trkpt lat="45.05829" lon="4.30124">
        <ele>937</ele>
        <time>2021-06-03T07:19:18Z</time>
      </trkpt>
      <trkpt lat="45.05844" lon="4.30131">
        <ele>939</ele>
        <time>2021-06-03T07:19:21Z</time>
      </trkpt>
      <trkpt lat="45.05853" lon="4.30134">
        <ele>940</ele>
        <time>2021-06-03T07:19:23Z</time>
      </trkpt>
      <trkpt lat="45.05864" lon="4.30133">
        <ele>941</ele>
        <time>2021-06-03T07:19:24Z</time>
      </trkpt>
      <trkpt lat="45.05881" lon="4.30125">
        <ele>943</ele>
        <time>2021-06-03T07:19:28Z</time>
      </trkpt>
      <trkpt lat="45.05887" lon="4.30122">
        <ele>943</ele>
        <time>2021-06-03T07:19:29Z</time>
      </trkpt>
      <trkpt lat="45.05889" lon="4.30121">
        <ele>943</ele>
        <time>2021-06-03T07:19:29Z</time>
      </trkpt>
      <trkpt lat="45.05891" lon="4.3012">
        <ele>944</ele>
        <time>2021-06-03T07:19:30Z</time>
      </trkpt>
      <trkpt lat="45.05901" lon="4.30116">
        <ele>945</ele>
        <time>2021-06-03T07:19:31Z</time>
      </trkpt>
      <trkpt lat="45.05906" lon="4.30115">
        <ele>945</ele>
        <time>2021-06-03T07:19:32Z</time>
      </trkpt>
      <trkpt lat="45.05909" lon="4.30115">
        <ele>946</ele>
        <time>2021-06-03T07:19:33Z</time>
      </trkpt>
      <trkpt lat="45.05923" lon="4.30116">
        <ele>947</ele>
        <time>2021-06-03T07:19:35Z</time>
      </trkpt>
      <trkpt lat="45.05933" lon="4.3012">
        <ele>949</ele>
        <time>2021-06-03T07:19:37Z</time>
      </trkpt>
      <trkpt lat="45.05936" lon="4.30116">
        <ele>949</ele>
        <time>2021-06-03T07:19:38Z</time>
      </trkpt>
      <trkpt lat="45.05937" lon="4.30114">
        <ele>949</ele>
        <time>2021-06-03T07:19:38Z</time>
      </trkpt>
      <trkpt lat="45.05953" lon="4.30092">
        <ele>952</ele>
        <time>2021-06-03T07:19:42Z</time>
      </trkpt>
      <trkpt lat="45.05972" lon="4.30065">
        <ele>954</ele>
        <time>2021-06-03T07:19:47Z</time>
      </trkpt>
      <trkpt lat="45.05985" lon="4.3005">
        <ele>955</ele>
        <time>2021-06-03T07:19:50Z</time>
      </trkpt>
      <trkpt lat="45.0599" lon="4.30049">
        <ele>956</ele>
        <time>2021-06-03T07:19:51Z</time>
      </trkpt>
      <trkpt lat="45.05994" lon="4.3004">
        <ele>956</ele>
        <time>2021-06-03T07:19:52Z</time>
      </trkpt>
      <trkpt lat="45.05997" lon="4.30035">
        <ele>956</ele>
        <time>2021-06-03T07:19:53Z</time>
      </trkpt>
      <trkpt lat="45.06034" lon="4.29983">
        <ele>958</ele>
        <time>2021-06-03T07:20:02Z</time>
      </trkpt>
      <trkpt lat="45.06051" lon="4.29957">
        <ele>959</ele>
        <time>2021-06-03T07:20:07Z</time>
      </trkpt>
      <trkpt lat="45.06053" lon="4.29953">
        <ele>959</ele>
        <time>2021-06-03T07:20:07Z</time>
      </trkpt>
      <trkpt lat="45.06072" lon="4.29899">
        <ele>959</ele>
        <time>2021-06-03T07:20:15Z</time>
      </trkpt>
      <trkpt lat="45.06105" lon="4.29783">
        <ele>955</ele>
        <time>2021-06-03T07:20:31Z</time>
      </trkpt>
      <trkpt lat="45.0611" lon="4.29769">
        <ele>954</ele>
        <time>2021-06-03T07:20:33Z</time>
      </trkpt>
      <trkpt lat="45.06123" lon="4.29752">
        <ele>954</ele>
        <time>2021-06-03T07:20:36Z</time>
      </trkpt>
      <trkpt lat="45.0613" lon="4.29746">
        <ele>954</ele>
        <time>2021-06-03T07:20:37Z</time>
      </trkpt>
      <trkpt lat="45.06146" lon="4.29738">
        <ele>955</ele>
        <time>2021-06-03T07:20:40Z</time>
      </trkpt>
      <trkpt lat="45.06159" lon="4.29737">
        <ele>957</ele>
        <time>2021-06-03T07:20:43Z</time>
      </trkpt>
      <trkpt lat="45.06172" lon="4.2974">
        <ele>959</ele>
        <time>2021-06-03T07:20:45Z</time>
      </trkpt>
      <trkpt lat="45.06184" lon="4.29745">
        <ele>959</ele>
        <time>2021-06-03T07:20:47Z</time>
      </trkpt>
      <trkpt lat="45.06196" lon="4.29753">
        <ele>959</ele>
        <time>2021-06-03T07:20:49Z</time>
      </trkpt>
      <trkpt lat="45.06205" lon="4.29763">
        <ele>959</ele>
        <time>2021-06-03T07:20:52Z</time>
      </trkpt>
      <trkpt lat="45.06214" lon="4.29777">
        <ele>960</ele>
        <time>2021-06-03T07:20:54Z</time>
      </trkpt>
      <trkpt lat="45.06221" lon="4.29794">
        <ele>962</ele>
        <time>2021-06-03T07:20:56Z</time>
      </trkpt>
      <trkpt lat="45.06244" lon="4.29886">
        <ele>964</ele>
        <time>2021-06-03T07:21:09Z</time>
      </trkpt>
      <trkpt lat="45.06248" lon="4.29898">
        <ele>964</ele>
        <time>2021-06-03T07:21:10Z</time>
      </trkpt>
      <trkpt lat="45.06254" lon="4.29908">
        <ele>964</ele>
        <time>2021-06-03T07:21:12Z</time>
      </trkpt>
      <trkpt lat="45.0626" lon="4.29915">
        <ele>964</ele>
        <time>2021-06-03T07:21:13Z</time>
      </trkpt>
      <trkpt lat="45.06267" lon="4.29921">
        <ele>965</ele>
        <time>2021-06-03T07:21:15Z</time>
      </trkpt>
      <trkpt lat="45.06286" lon="4.29926">
        <ele>966</ele>
        <time>2021-06-03T07:21:18Z</time>
      </trkpt>
      <trkpt lat="45.06296" lon="4.29925">
        <ele>966</ele>
        <time>2021-06-03T07:21:20Z</time>
      </trkpt>
      <trkpt lat="45.06312" lon="4.29913">
        <ele>967</ele>
        <time>2021-06-03T07:21:23Z</time>
      </trkpt>
      <trkpt lat="45.06319" lon="4.29905">
        <ele>967</ele>
        <time>2021-06-03T07:21:25Z</time>
      </trkpt>
      <trkpt lat="45.06324" lon="4.29893">
        <ele>966</ele>
        <time>2021-06-03T07:21:27Z</time>
      </trkpt>
      <trkpt lat="45.06346" lon="4.29806">
        <ele>963</ele>
        <time>2021-06-03T07:21:38Z</time>
      </trkpt>
      <trkpt lat="45.0635" lon="4.29791">
        <ele>962</ele>
        <time>2021-06-03T07:21:40Z</time>
      </trkpt>
      <trkpt lat="45.06355" lon="4.29783">
        <ele>962</ele>
        <time>2021-06-03T07:21:42Z</time>
      </trkpt>
      <trkpt lat="45.06357" lon="4.29778">
        <ele>962</ele>
        <time>2021-06-03T07:21:42Z</time>
      </trkpt>
      <trkpt lat="45.06367" lon="4.29767">
        <ele>963</ele>
        <time>2021-06-03T07:21:45Z</time>
      </trkpt>
      <trkpt lat="45.06387" lon="4.29755">
        <ele>964</ele>
        <time>2021-06-03T07:21:48Z</time>
      </trkpt>
      <trkpt lat="45.06398" lon="4.29753">
        <ele>965</ele>
        <time>2021-06-03T07:21:50Z</time>
      </trkpt>
      <trkpt lat="45.06425" lon="4.29757">
        <ele>969</ele>
        <time>2021-06-03T07:21:55Z</time>
      </trkpt>
      <trkpt lat="45.06437" lon="4.29756">
        <ele>971</ele>
        <time>2021-06-03T07:21:57Z</time>
      </trkpt>
      <trkpt lat="45.06451" lon="4.29753">
        <ele>973</ele>
        <time>2021-06-03T07:22:00Z</time>
      </trkpt>
      <trkpt lat="45.0646" lon="4.29746">
        <ele>973</ele>
        <time>2021-06-03T07:22:02Z</time>
      </trkpt>
      <trkpt lat="45.06469" lon="4.29735">
        <ele>973</ele>
        <time>2021-06-03T07:22:04Z</time>
      </trkpt>
      <trkpt lat="45.06486" lon="4.29695">
        <ele>970</ele>
        <time>2021-06-03T07:22:10Z</time>
      </trkpt>
      <trkpt lat="45.06495" lon="4.29675">
        <ele>968</ele>
        <time>2021-06-03T07:22:13Z</time>
      </trkpt>
      <trkpt lat="45.06506" lon="4.29656">
        <ele>969</ele>
        <time>2021-06-03T07:22:16Z</time>
      </trkpt>
      <trkpt lat="45.06519" lon="4.29639">
        <ele>970</ele>
        <time>2021-06-03T07:22:19Z</time>
      </trkpt>
      <trkpt lat="45.06535" lon="4.29626">
        <ele>971</ele>
        <time>2021-06-03T07:22:22Z</time>
      </trkpt>
      <trkpt lat="45.06551" lon="4.29616">
        <ele>971</ele>
        <time>2021-06-03T07:22:25Z</time>
      </trkpt>
      <trkpt lat="45.06565" lon="4.2961">
        <ele>972</ele>
        <time>2021-06-03T07:22:28Z</time>
      </trkpt>
      <trkpt lat="45.06726" lon="4.29588">
        <ele>968</ele>
        <time>2021-06-03T07:22:57Z</time>
      </trkpt>
      <trkpt lat="45.06764" lon="4.2959">
        <ele>969</ele>
        <time>2021-06-03T07:23:03Z</time>
      </trkpt>
      <trkpt lat="45.0678" lon="4.29594">
        <ele>970</ele>
        <time>2021-06-03T07:23:06Z</time>
      </trkpt>
      <trkpt lat="45.06801" lon="4.29604">
        <ele>971</ele>
        <time>2021-06-03T07:23:10Z</time>
      </trkpt>
      <trkpt lat="45.06817" lon="4.29617">
        <ele>972</ele>
        <time>2021-06-03T07:23:14Z</time>
      </trkpt>
      <trkpt lat="45.06828" lon="4.29627">
        <ele>972</ele>
        <time>2021-06-03T07:23:16Z</time>
      </trkpt>
      <trkpt lat="45.06843" lon="4.29646">
        <ele>974</ele>
        <time>2021-06-03T07:23:19Z</time>
      </trkpt>
      <trkpt lat="45.06848" lon="4.29652">
        <ele>975</ele>
        <time>2021-06-03T07:23:21Z</time>
      </trkpt>
      <trkpt lat="45.06858" lon="4.29661">
        <ele>976</ele>
        <time>2021-06-03T07:23:23Z</time>
      </trkpt>
      <trkpt lat="45.06869" lon="4.29666">
        <ele>977</ele>
        <time>2021-06-03T07:23:25Z</time>
      </trkpt>
      <trkpt lat="45.06879" lon="4.29668">
        <ele>977</ele>
        <time>2021-06-03T07:23:27Z</time>
      </trkpt>
      <trkpt lat="45.0689" lon="4.29667">
        <ele>978</ele>
        <time>2021-06-03T07:23:29Z</time>
      </trkpt>
      <trkpt lat="45.069" lon="4.29664">
        <ele>978</ele>
        <time>2021-06-03T07:23:30Z</time>
      </trkpt>
      <trkpt lat="45.06908" lon="4.29658">
        <ele>978</ele>
        <time>2021-06-03T07:23:32Z</time>
      </trkpt>
      <trkpt lat="45.06914" lon="4.29651">
        <ele>977</ele>
        <time>2021-06-03T07:23:33Z</time>
      </trkpt>
      <trkpt lat="45.06924" lon="4.29637">
        <ele>977</ele>
        <time>2021-06-03T07:23:36Z</time>
      </trkpt>
      <trkpt lat="45.06935" lon="4.29618">
        <ele>977</ele>
        <time>2021-06-03T07:23:39Z</time>
      </trkpt>
      <trkpt lat="45.06948" lon="4.29587">
        <ele>976</ele>
        <time>2021-06-03T07:23:43Z</time>
      </trkpt>
      <trkpt lat="45.06968" lon="4.29548">
        <ele>975</ele>
        <time>2021-06-03T07:23:50Z</time>
      </trkpt>
      <trkpt lat="45.06983" lon="4.29524">
        <ele>974</ele>
        <time>2021-06-03T07:23:54Z</time>
      </trkpt>
      <trkpt lat="45.07001" lon="4.29502">
        <ele>974</ele>
        <time>2021-06-03T07:23:58Z</time>
      </trkpt>
      <trkpt lat="45.07021" lon="4.29479">
        <ele>974</ele>
        <time>2021-06-03T07:24:02Z</time>
      </trkpt>
      <trkpt lat="45.07043" lon="4.29457">
        <ele>974</ele>
        <time>2021-06-03T07:24:07Z</time>
      </trkpt>
      <trkpt lat="45.07063" lon="4.29442">
        <ele>975</ele>
        <time>2021-06-03T07:24:11Z</time>
      </trkpt>
      <trkpt lat="45.07102" lon="4.29424">
        <ele>975</ele>
        <time>2021-06-03T07:24:18Z</time>
      </trkpt>
      <trkpt lat="45.07142" lon="4.29418">
        <ele>974</ele>
        <time>2021-06-03T07:24:26Z</time>
      </trkpt>
      <trkpt lat="45.07162" lon="4.29418">
        <ele>974</ele>
        <time>2021-06-03T07:24:29Z</time>
      </trkpt>
      <trkpt lat="45.07177" lon="4.29425">
        <ele>974</ele>
        <time>2021-06-03T07:24:32Z</time>
      </trkpt>
      <trkpt lat="45.07193" lon="4.29435">
        <ele>974</ele>
        <time>2021-06-03T07:24:35Z</time>
      </trkpt>
      <trkpt lat="45.07206" lon="4.29448">
        <ele>974</ele>
        <time>2021-06-03T07:24:38Z</time>
      </trkpt>
      <trkpt lat="45.07224" lon="4.29473">
        <ele>973</ele>
        <time>2021-06-03T07:24:42Z</time>
      </trkpt>
      <trkpt lat="45.07232" lon="4.29496">
        <ele>972</ele>
        <time>2021-06-03T07:24:46Z</time>
      </trkpt>
      <trkpt lat="45.07249" lon="4.29545">
        <ele>970</ele>
        <time>2021-06-03T07:24:53Z</time>
      </trkpt>
      <trkpt lat="45.07266" lon="4.29598">
        <ele>969</ele>
        <time>2021-06-03T07:25:00Z</time>
      </trkpt>
      <trkpt lat="45.07272" lon="4.29612">
        <ele>969</ele>
        <time>2021-06-03T07:25:02Z</time>
      </trkpt>
      <trkpt lat="45.07281" lon="4.29624">
        <ele>970</ele>
        <time>2021-06-03T07:25:04Z</time>
      </trkpt>
      <trkpt lat="45.07291" lon="4.29634">
        <ele>970</ele>
        <time>2021-06-03T07:25:06Z</time>
      </trkpt>
      <trkpt lat="45.07301" lon="4.29641">
        <ele>971</ele>
        <time>2021-06-03T07:25:08Z</time>
      </trkpt>
      <trkpt lat="45.07314" lon="4.29644">
        <ele>971</ele>
        <time>2021-06-03T07:25:11Z</time>
      </trkpt>
      <trkpt lat="45.07334" lon="4.29645">
        <ele>971</ele>
        <time>2021-06-03T07:25:14Z</time>
      </trkpt>
      <trkpt lat="45.0739" lon="4.29643">
        <ele>967</ele>
        <time>2021-06-03T07:25:24Z</time>
      </trkpt>
      <trkpt lat="45.07407" lon="4.29646">
        <ele>967</ele>
        <time>2021-06-03T07:25:27Z</time>
      </trkpt>
      <trkpt lat="45.07423" lon="4.29653">
        <ele>966</ele>
        <time>2021-06-03T07:25:30Z</time>
      </trkpt>
      <trkpt lat="45.07446" lon="4.29677">
        <ele>965</ele>
        <time>2021-06-03T07:25:35Z</time>
      </trkpt>
      <trkpt lat="45.07456" lon="4.29693">
        <ele>966</ele>
        <time>2021-06-03T07:25:38Z</time>
      </trkpt>
      <trkpt lat="45.07502" lon="4.29776">
        <ele>967</ele>
        <time>2021-06-03T07:25:51Z</time>
      </trkpt>
      <trkpt lat="45.07512" lon="4.29791">
        <ele>968</ele>
        <time>2021-06-03T07:25:54Z</time>
      </trkpt>
      <trkpt lat="45.07521" lon="4.29801">
        <ele>968</ele>
        <time>2021-06-03T07:25:56Z</time>
      </trkpt>
      <trkpt lat="45.0753" lon="4.29808">
        <ele>968</ele>
        <time>2021-06-03T07:25:58Z</time>
      </trkpt>
      <trkpt lat="45.07542" lon="4.29814">
        <ele>967</ele>
        <time>2021-06-03T07:26:00Z</time>
      </trkpt>
      <trkpt lat="45.07554" lon="4.29816">
        <ele>965</ele>
        <time>2021-06-03T07:26:02Z</time>
      </trkpt>
      <trkpt lat="45.07578" lon="4.29812">
        <ele>962</ele>
        <time>2021-06-03T07:26:06Z</time>
      </trkpt>
      <trkpt lat="45.07589" lon="4.29804">
        <ele>961</ele>
        <time>2021-06-03T07:26:09Z</time>
      </trkpt>
      <trkpt lat="45.076" lon="4.29793">
        <ele>961</ele>
        <time>2021-06-03T07:26:11Z</time>
      </trkpt>
      <trkpt lat="45.07674" lon="4.2972">
        <ele>959</ele>
        <time>2021-06-03T07:26:27Z</time>
      </trkpt>
      <trkpt lat="45.07711" lon="4.29686">
        <ele>960</ele>
        <time>2021-06-03T07:26:35Z</time>
      </trkpt>
      <trkpt lat="45.07723" lon="4.29677">
        <ele>961</ele>
        <time>2021-06-03T07:26:37Z</time>
      </trkpt>
      <trkpt lat="45.0776" lon="4.29656">
        <ele>963</ele>
        <time>2021-06-03T07:26:44Z</time>
      </trkpt>
      <trkpt lat="45.07773" lon="4.2964">
        <ele>963</ele>
        <time>2021-06-03T07:26:47Z</time>
      </trkpt>
      <trkpt lat="45.07777" lon="4.2963">
        <ele>963</ele>
        <time>2021-06-03T07:26:49Z</time>
      </trkpt>
      <trkpt lat="45.07781" lon="4.29617">
        <ele>963</ele>
        <time>2021-06-03T07:26:51Z</time>
      </trkpt>
      <trkpt lat="45.07783" lon="4.29602">
        <ele>963</ele>
        <time>2021-06-03T07:26:53Z</time>
      </trkpt>
      <trkpt lat="45.07782" lon="4.29586">
        <ele>962</ele>
        <time>2021-06-03T07:26:55Z</time>
      </trkpt>
      <trkpt lat="45.07779" lon="4.2957">
        <ele>962</ele>
        <time>2021-06-03T07:26:57Z</time>
      </trkpt>
      <trkpt lat="45.07766" lon="4.29525">
        <ele>958</ele>
        <time>2021-06-03T07:27:03Z</time>
      </trkpt>
      <trkpt lat="45.07766" lon="4.29496">
        <ele>958</ele>
        <time>2021-06-03T07:27:06Z</time>
      </trkpt>
      <trkpt lat="45.0777" lon="4.29478">
        <ele>957</ele>
        <time>2021-06-03T07:27:09Z</time>
      </trkpt>
      <trkpt lat="45.07776" lon="4.29466">
        <ele>957</ele>
        <time>2021-06-03T07:27:11Z</time>
      </trkpt>
      <trkpt lat="45.07792" lon="4.29446">
        <ele>959</ele>
        <time>2021-06-03T07:27:14Z</time>
      </trkpt>
      <trkpt lat="45.07804" lon="4.29438">
        <ele>961</ele>
        <time>2021-06-03T07:27:17Z</time>
      </trkpt>
      <trkpt lat="45.07818" lon="4.29433">
        <ele>964</ele>
        <time>2021-06-03T07:27:19Z</time>
      </trkpt>
      <trkpt lat="45.07908" lon="4.29412">
        <ele>971</ele>
        <time>2021-06-03T07:27:36Z</time>
      </trkpt>
      <trkpt lat="45.07922" lon="4.29408">
        <ele>971</ele>
        <time>2021-06-03T07:27:38Z</time>
      </trkpt>
      <trkpt lat="45.07932" lon="4.294">
        <ele>970</ele>
        <time>2021-06-03T07:27:40Z</time>
      </trkpt>
      <trkpt lat="45.07946" lon="4.29389">
        <ele>970</ele>
        <time>2021-06-03T07:27:43Z</time>
      </trkpt>
      <trkpt lat="45.07956" lon="4.29376">
        <ele>969</ele>
        <time>2021-06-03T07:27:45Z</time>
      </trkpt>
      <trkpt lat="45.07965" lon="4.2936">
        <ele>969</ele>
        <time>2021-06-03T07:27:48Z</time>
      </trkpt>
      <trkpt lat="45.07995" lon="4.29297">
        <ele>969</ele>
        <time>2021-06-03T07:27:58Z</time>
      </trkpt>
      <trkpt lat="45.08011" lon="4.29279">
        <ele>967</ele>
        <time>2021-06-03T07:28:01Z</time>
      </trkpt>
      <trkpt lat="45.08021" lon="4.29274">
        <ele>966</ele>
        <time>2021-06-03T07:28:03Z</time>
      </trkpt>
      <trkpt lat="45.08043" lon="4.29274">
        <ele>965</ele>
        <time>2021-06-03T07:28:07Z</time>
      </trkpt>
      <trkpt lat="45.08052" lon="4.29278">
        <ele>965</ele>
        <time>2021-06-03T07:28:09Z</time>
      </trkpt>
      <trkpt lat="45.08059" lon="4.29283">
        <ele>965</ele>
        <time>2021-06-03T07:28:10Z</time>
      </trkpt>
      <trkpt lat="45.08097" lon="4.29326">
        <ele>971</ele>
        <time>2021-06-03T07:28:19Z</time>
      </trkpt>
      <trkpt lat="45.08108" lon="4.29334">
        <ele>972</ele>
        <time>2021-06-03T07:28:21Z</time>
      </trkpt>
      <trkpt lat="45.08118" lon="4.29338">
        <ele>972</ele>
        <time>2021-06-03T07:28:23Z</time>
      </trkpt>
      <trkpt lat="45.08128" lon="4.29338">
        <ele>972</ele>
        <time>2021-06-03T07:28:25Z</time>
      </trkpt>
      <trkpt lat="45.08138" lon="4.29336">
        <ele>972</ele>
        <time>2021-06-03T07:28:26Z</time>
      </trkpt>
      <trkpt lat="45.08148" lon="4.29329">
        <ele>970</ele>
        <time>2021-06-03T07:28:28Z</time>
      </trkpt>
      <trkpt lat="45.08157" lon="4.29318">
        <ele>968</ele>
        <time>2021-06-03T07:28:30Z</time>
      </trkpt>
      <trkpt lat="45.08166" lon="4.29303">
        <ele>966</ele>
        <time>2021-06-03T07:28:33Z</time>
      </trkpt>
      <trkpt lat="45.08201" lon="4.29231">
        <ele>958</ele>
        <time>2021-06-03T07:28:44Z</time>
      </trkpt>
      <trkpt lat="45.08212" lon="4.29218">
        <ele>956</ele>
        <time>2021-06-03T07:28:46Z</time>
      </trkpt>
      <trkpt lat="45.08252" lon="4.29191">
        <ele>958</ele>
        <time>2021-06-03T07:28:54Z</time>
      </trkpt>
      <trkpt lat="45.08269" lon="4.29179">
        <ele>959</ele>
        <time>2021-06-03T07:28:58Z</time>
      </trkpt>
      <trkpt lat="45.08286" lon="4.29153">
        <ele>956</ele>
        <time>2021-06-03T07:29:02Z</time>
      </trkpt>
      <trkpt lat="45.08302" lon="4.29112">
        <ele>950</ele>
        <time>2021-06-03T07:29:08Z</time>
      </trkpt>
      <trkpt lat="45.08312" lon="4.29095">
        <ele>949</ele>
        <time>2021-06-03T07:29:11Z</time>
      </trkpt>
      <trkpt lat="45.08324" lon="4.29083">
        <ele>950</ele>
        <time>2021-06-03T07:29:13Z</time>
      </trkpt>
      <trkpt lat="45.08331" lon="4.29078">
        <ele>951</ele>
        <time>2021-06-03T07:29:15Z</time>
      </trkpt>
      <trkpt lat="45.08337" lon="4.29075">
        <ele>950</ele>
        <time>2021-06-03T07:29:16Z</time>
      </trkpt>
      <trkpt lat="45.08352" lon="4.29072">
        <ele>948</ele>
        <time>2021-06-03T07:29:19Z</time>
      </trkpt>
      <trkpt lat="45.08367" lon="4.29075">
        <ele>949</ele>
        <time>2021-06-03T07:29:21Z</time>
      </trkpt>
      <trkpt lat="45.08431" lon="4.29107">
        <ele>952</ele>
        <time>2021-06-03T07:29:33Z</time>
      </trkpt>
      <trkpt lat="45.0846" lon="4.29125">
        <ele>949</ele>
        <time>2021-06-03T07:29:39Z</time>
      </trkpt>
      <trkpt lat="45.08525" lon="4.2918">
        <ele>948</ele>
        <time>2021-06-03T07:29:53Z</time>
      </trkpt>
      <trkpt lat="45.08552" lon="4.29195">
        <ele>947</ele>
        <time>2021-06-03T07:29:58Z</time>
      </trkpt>
      <trkpt lat="45.08582" lon="4.29204">
        <ele>944</ele>
        <time>2021-06-03T07:30:03Z</time>
      </trkpt>
      <trkpt lat="45.08706" lon="4.29233">
        <ele>941</ele>
        <time>2021-06-03T07:30:26Z</time>
      </trkpt>
      <trkpt lat="45.08754" lon="4.29234">
        <ele>938</ele>
        <time>2021-06-03T07:30:34Z</time>
      </trkpt>
      <trkpt lat="45.08785" lon="4.29238">
        <ele>937</ele>
        <time>2021-06-03T07:30:40Z</time>
      </trkpt>
      <trkpt lat="45.08809" lon="4.29243">
        <ele>936</ele>
        <time>2021-06-03T07:30:44Z</time>
      </trkpt>
      <trkpt lat="45.0885" lon="4.29253">
        <ele>933</ele>
        <time>2021-06-03T07:30:51Z</time>
      </trkpt>
      <trkpt lat="45.08867" lon="4.29263">
        <ele>932</ele>
        <time>2021-06-03T07:30:55Z</time>
      </trkpt>
      <trkpt lat="45.08887" lon="4.29279">
        <ele>931</ele>
        <time>2021-06-03T07:30:59Z</time>
      </trkpt>
      <trkpt lat="45.08917" lon="4.29307">
        <ele>930</ele>
        <time>2021-06-03T07:31:05Z</time>
      </trkpt>
      <trkpt lat="45.0893" lon="4.29321">
        <ele>929</ele>
        <time>2021-06-03T07:31:08Z</time>
      </trkpt>
      <trkpt lat="45.08956" lon="4.29355">
        <ele>928</ele>
        <time>2021-06-03T07:31:14Z</time>
      </trkpt>
      <trkpt lat="45.08967" lon="4.29375">
        <ele>928</ele>
        <time>2021-06-03T07:31:17Z</time>
      </trkpt>
      <trkpt lat="45.08978" lon="4.294">
        <ele>928</ele>
        <time>2021-06-03T07:31:21Z</time>
      </trkpt>
      <trkpt lat="45.08983" lon="4.29426">
        <ele>930</ele>
        <time>2021-06-03T07:31:25Z</time>
      </trkpt>
      <trkpt lat="45.08987" lon="4.29451">
        <ele>929</ele>
        <time>2021-06-03T07:31:28Z</time>
      </trkpt>
      <trkpt lat="45.08984" lon="4.29548">
        <ele>933</ele>
        <time>2021-06-03T07:31:40Z</time>
      </trkpt>
      <trkpt lat="45.08983" lon="4.29574">
        <ele>934</ele>
        <time>2021-06-03T07:31:43Z</time>
      </trkpt>
      <trkpt lat="45.08988" lon="4.29597">
        <ele>933</ele>
        <time>2021-06-03T07:31:46Z</time>
      </trkpt>
      <trkpt lat="45.08995" lon="4.2961">
        <ele>932</ele>
        <time>2021-06-03T07:31:48Z</time>
      </trkpt>
      <trkpt lat="45.09002" lon="4.29617">
        <ele>931</ele>
        <time>2021-06-03T07:31:50Z</time>
      </trkpt>
      <trkpt lat="45.09017" lon="4.29623">
        <ele>930</ele>
        <time>2021-06-03T07:31:53Z</time>
      </trkpt>
      <trkpt lat="45.09047" lon="4.29611">
        <ele>927</ele>
        <time>2021-06-03T07:31:58Z</time>
      </trkpt>
      <trkpt lat="45.09055" lon="4.29601">
        <ele>926</ele>
        <time>2021-06-03T07:32:00Z</time>
      </trkpt>
      <trkpt lat="45.09063" lon="4.29585">
        <ele>925</ele>
        <time>2021-06-03T07:32:03Z</time>
      </trkpt>
      <trkpt lat="45.09108" lon="4.29471">
        <ele>915</ele>
        <time>2021-06-03T07:32:19Z</time>
      </trkpt>
      <trkpt lat="45.09212" lon="4.29218">
        <ele>910</ele>
        <time>2021-06-03T07:32:56Z</time>
      </trkpt>
      <trkpt lat="45.09233" lon="4.29175">
        <ele>910</ele>
        <time>2021-06-03T07:33:02Z</time>
      </trkpt>
      <trkpt lat="45.09256" lon="4.29141">
        <ele>910</ele>
        <time>2021-06-03T07:33:08Z</time>
      </trkpt>
      <trkpt lat="45.09266" lon="4.2913">
        <ele>910</ele>
        <time>2021-06-03T07:33:10Z</time>
      </trkpt>
      <trkpt lat="45.09281" lon="4.29119">
        <ele>910</ele>
        <time>2021-06-03T07:33:13Z</time>
      </trkpt>
      <trkpt lat="45.09299" lon="4.29109">
        <ele>911</ele>
        <time>2021-06-03T07:33:17Z</time>
      </trkpt>
      <trkpt lat="45.09315" lon="4.29103">
        <ele>912</ele>
        <time>2021-06-03T07:33:20Z</time>
      </trkpt>
      <trkpt lat="45.09354" lon="4.29102">
        <ele>911</ele>
        <time>2021-06-03T07:33:27Z</time>
      </trkpt>
      <trkpt lat="45.09387" lon="4.29111">
        <ele>910</ele>
        <time>2021-06-03T07:33:33Z</time>
      </trkpt>
      <trkpt lat="45.09473" lon="4.29151">
        <ele>909</ele>
        <time>2021-06-03T07:33:49Z</time>
      </trkpt>
      <trkpt lat="45.09511" lon="4.29165">
        <ele>912</ele>
        <time>2021-06-03T07:33:56Z</time>
      </trkpt>
      <trkpt lat="45.09531" lon="4.29168">
        <ele>914</ele>
        <time>2021-06-03T07:33:59Z</time>
      </trkpt>
      <trkpt lat="45.09551" lon="4.29166">
        <ele>914</ele>
        <time>2021-06-03T07:34:03Z</time>
      </trkpt>
      <trkpt lat="45.0957" lon="4.29159">
        <ele>913</ele>
        <time>2021-06-03T07:34:06Z</time>
      </trkpt>
      <trkpt lat="45.09731" lon="4.29081">
        <ele>914</ele>
        <time>2021-06-03T07:34:37Z</time>
      </trkpt>
      <trkpt lat="45.09748" lon="4.2907">
        <ele>914</ele>
        <time>2021-06-03T07:34:40Z</time>
      </trkpt>
      <trkpt lat="45.09768" lon="4.29053">
        <ele>913</ele>
        <time>2021-06-03T07:34:44Z</time>
      </trkpt>
      <trkpt lat="45.09787" lon="4.29032">
        <ele>913</ele>
        <time>2021-06-03T07:34:49Z</time>
      </trkpt>
      <trkpt lat="45.09976" lon="4.28786">
        <ele>908</ele>
        <time>2021-06-03T07:35:34Z</time>
      </trkpt>
      <trkpt lat="45.10004" lon="4.28755">
        <ele>908</ele>
        <time>2021-06-03T07:35:41Z</time>
      </trkpt>
      <trkpt lat="45.10029" lon="4.28735">
        <ele>906</ele>
        <time>2021-06-03T07:35:46Z</time>
      </trkpt>
      <trkpt lat="45.10063" lon="4.28722">
        <ele>907</ele>
        <time>2021-06-03T07:35:52Z</time>
      </trkpt>
      <trkpt lat="45.10078" lon="4.28723">
        <ele>909</ele>
        <time>2021-06-03T07:35:55Z</time>
      </trkpt>
      <trkpt lat="45.10092" lon="4.28728">
        <ele>908</ele>
        <time>2021-06-03T07:35:57Z</time>
      </trkpt>
      <trkpt lat="45.10108" lon="4.28741">
        <ele>907</ele>
        <time>2021-06-03T07:36:00Z</time>
      </trkpt>
      <trkpt lat="45.10119" lon="4.28757">
        <ele>907</ele>
        <time>2021-06-03T07:36:03Z</time>
      </trkpt>
      <trkpt lat="45.10129" lon="4.28779">
        <ele>907</ele>
        <time>2021-06-03T07:36:07Z</time>
      </trkpt>
      <trkpt lat="45.10145" lon="4.28918">
        <ele>911</ele>
        <time>2021-06-03T07:36:24Z</time>
      </trkpt>
      <trkpt lat="45.10152" lon="4.28937">
        <ele>909</ele>
        <time>2021-06-03T07:36:27Z</time>
      </trkpt>
      <trkpt lat="45.10161" lon="4.2895">
        <ele>907</ele>
        <time>2021-06-03T07:36:29Z</time>
      </trkpt>
      <trkpt lat="45.10184" lon="4.28963">
        <ele>906</ele>
        <time>2021-06-03T07:36:34Z</time>
      </trkpt>
      <trkpt lat="45.10197" lon="4.28963">
        <ele>907</ele>
        <time>2021-06-03T07:36:36Z</time>
      </trkpt>
      <trkpt lat="45.10208" lon="4.2896">
        <ele>907</ele>
        <time>2021-06-03T07:36:38Z</time>
      </trkpt>
      <trkpt lat="45.10225" lon="4.28947">
        <ele>907</ele>
        <time>2021-06-03T07:36:41Z</time>
      </trkpt>
      <trkpt lat="45.10232" lon="4.28937">
        <ele>906</ele>
        <time>2021-06-03T07:36:43Z</time>
      </trkpt>
      <trkpt lat="45.10237" lon="4.28923">
        <ele>905</ele>
        <time>2021-06-03T07:36:45Z</time>
      </trkpt>
      <trkpt lat="45.10245" lon="4.28884">
        <ele>902</ele>
        <time>2021-06-03T07:36:50Z</time>
      </trkpt>
      <trkpt lat="45.10249" lon="4.28873">
        <ele>900</ele>
        <time>2021-06-03T07:36:52Z</time>
      </trkpt>
      <trkpt lat="45.10263" lon="4.2885">
        <ele>899</ele>
        <time>2021-06-03T07:36:56Z</time>
      </trkpt>
      <trkpt lat="45.10282" lon="4.28836">
        <ele>899</ele>
        <time>2021-06-03T07:36:59Z</time>
      </trkpt>
      <trkpt lat="45.10292" lon="4.28832">
        <ele>899</ele>
        <time>2021-06-03T07:37:01Z</time>
      </trkpt>
      <trkpt lat="45.10305" lon="4.28831">
        <ele>900</ele>
        <time>2021-06-03T07:37:04Z</time>
      </trkpt>
      <trkpt lat="45.10317" lon="4.28832">
        <ele>901</ele>
        <time>2021-06-03T07:37:06Z</time>
      </trkpt>
      <trkpt lat="45.10364" lon="4.28846">
        <ele>904</ele>
        <time>2021-06-03T07:37:14Z</time>
      </trkpt>
      <trkpt lat="45.10377" lon="4.28847">
        <ele>904</ele>
        <time>2021-06-03T07:37:17Z</time>
      </trkpt>
      <trkpt lat="45.10391" lon="4.28845">
        <ele>904</ele>
        <time>2021-06-03T07:37:19Z</time>
      </trkpt>
      <trkpt lat="45.10405" lon="4.28841">
        <ele>903</ele>
        <time>2021-06-03T07:37:22Z</time>
      </trkpt>
      <trkpt lat="45.10421" lon="4.28832">
        <ele>901</ele>
        <time>2021-06-03T07:37:25Z</time>
      </trkpt>
      <trkpt lat="45.1046" lon="4.28803">
        <ele>898</ele>
        <time>2021-06-03T07:37:32Z</time>
      </trkpt>
      <trkpt lat="45.10473" lon="4.28796">
        <ele>897</ele>
        <time>2021-06-03T07:37:35Z</time>
      </trkpt>
      <trkpt lat="45.10488" lon="4.28792">
        <ele>897</ele>
        <time>2021-06-03T07:37:38Z</time>
      </trkpt>
      <trkpt lat="45.10553" lon="4.28783">
        <ele>898</ele>
        <time>2021-06-03T07:37:49Z</time>
      </trkpt>
      <trkpt lat="45.10573" lon="4.28783">
        <ele>899</ele>
        <time>2021-06-03T07:37:53Z</time>
      </trkpt>
      <trkpt lat="45.10586" lon="4.28786">
        <ele>899</ele>
        <time>2021-06-03T07:37:55Z</time>
      </trkpt>
      <trkpt lat="45.10603" lon="4.28794">
        <ele>899</ele>
        <time>2021-06-03T07:37:58Z</time>
      </trkpt>
      <trkpt lat="45.10619" lon="4.28807">
        <ele>899</ele>
        <time>2021-06-03T07:38:02Z</time>
      </trkpt>
      <trkpt lat="45.1064" lon="4.28833">
        <ele>898</ele>
        <time>2021-06-03T07:38:07Z</time>
      </trkpt>
      <trkpt lat="45.10651" lon="4.28853">
        <ele>897</ele>
        <time>2021-06-03T07:38:10Z</time>
      </trkpt>
      <trkpt lat="45.10749" lon="4.29053">
        <ele>890</ele>
        <time>2021-06-03T07:38:40Z</time>
      </trkpt>
      <trkpt lat="45.10759" lon="4.29081">
        <ele>889</ele>
        <time>2021-06-03T07:38:44Z</time>
      </trkpt>
      <trkpt lat="45.10765" lon="4.29109">
        <ele>888</ele>
        <time>2021-06-03T07:38:48Z</time>
      </trkpt>
      <trkpt lat="45.10771" lon="4.2916">
        <ele>887</ele>
        <time>2021-06-03T07:38:54Z</time>
      </trkpt>
      <trkpt lat="45.10772" lon="4.29191">
        <ele>886</ele>
        <time>2021-06-03T07:38:58Z</time>
      </trkpt>
      <trkpt lat="45.10767" lon="4.29296">
        <ele>884</ele>
        <time>2021-06-03T07:39:12Z</time>
      </trkpt>
      <trkpt lat="45.10771" lon="4.29339">
        <ele>883</ele>
        <time>2021-06-03T07:39:17Z</time>
      </trkpt>
      <trkpt lat="45.10777" lon="4.29367">
        <ele>881</ele>
        <time>2021-06-03T07:39:21Z</time>
      </trkpt>
      <trkpt lat="45.10782" lon="4.2938">
        <ele>880</ele>
        <time>2021-06-03T07:39:23Z</time>
      </trkpt>
      <trkpt lat="45.108" lon="4.29416">
        <ele>876</ele>
        <time>2021-06-03T07:39:28Z</time>
      </trkpt>
      <trkpt lat="45.10813" lon="4.29438">
        <ele>874</ele>
        <time>2021-06-03T07:39:32Z</time>
      </trkpt>
      <trkpt lat="45.10827" lon="4.29455">
        <ele>872</ele>
        <time>2021-06-03T07:39:35Z</time>
      </trkpt>
      <trkpt lat="45.10851" lon="4.29477">
        <ele>871</ele>
        <time>2021-06-03T07:39:40Z</time>
      </trkpt>
      <trkpt lat="45.10886" lon="4.29504">
        <ele>869</ele>
        <time>2021-06-03T07:39:47Z</time>
      </trkpt>
      <trkpt lat="45.10891" lon="4.29509">
        <ele>869</ele>
        <time>2021-06-03T07:39:48Z</time>
      </trkpt>
      <trkpt lat="45.10891" lon="4.29518">
        <ele>870</ele>
        <time>2021-06-03T07:39:49Z</time>
      </trkpt>
      <trkpt lat="45.10893" lon="4.29527">
        <ele>870</ele>
        <time>2021-06-03T07:39:51Z</time>
      </trkpt>
      <trkpt lat="45.10898" lon="4.29536">
        <ele>870</ele>
        <time>2021-06-03T07:39:52Z</time>
      </trkpt>
      <trkpt lat="45.10905" lon="4.29541">
        <ele>870</ele>
        <time>2021-06-03T07:39:53Z</time>
      </trkpt>
      <trkpt lat="45.10912" lon="4.29544">
        <ele>869</ele>
        <time>2021-06-03T07:39:55Z</time>
      </trkpt>
      <trkpt lat="45.10919" lon="4.29542">
        <ele>869</ele>
        <time>2021-06-03T07:39:56Z</time>
      </trkpt>
      <trkpt lat="45.10925" lon="4.29538">
        <ele>869</ele>
        <time>2021-06-03T07:39:57Z</time>
      </trkpt>
      <trkpt lat="45.1093" lon="4.29531">
        <ele>868</ele>
        <time>2021-06-03T07:39:58Z</time>
      </trkpt>
      <trkpt lat="45.10933" lon="4.29523">
        <ele>868</ele>
        <time>2021-06-03T07:40:00Z</time>
      </trkpt>
      <trkpt lat="45.10935" lon="4.29512">
        <ele>867</ele>
        <time>2021-06-03T07:40:01Z</time>
      </trkpt>
      <trkpt lat="45.10934" lon="4.29502">
        <ele>867</ele>
        <time>2021-06-03T07:40:02Z</time>
      </trkpt>
      <trkpt lat="45.1093" lon="4.29493">
        <ele>867</ele>
        <time>2021-06-03T07:40:04Z</time>
      </trkpt>
      <trkpt lat="45.10926" lon="4.29487">
        <ele>866</ele>
        <time>2021-06-03T07:40:05Z</time>
      </trkpt>
      <trkpt lat="45.1092" lon="4.29483">
        <ele>867</ele>
        <time>2021-06-03T07:40:06Z</time>
      </trkpt>
      <trkpt lat="45.10913" lon="4.29481">
        <ele>867</ele>
        <time>2021-06-03T07:40:07Z</time>
      </trkpt>
      <trkpt lat="45.10907" lon="4.29482">
        <ele>867</ele>
        <time>2021-06-03T07:40:08Z</time>
      </trkpt>
      <trkpt lat="45.10901" lon="4.29485">
        <ele>868</ele>
        <time>2021-06-03T07:40:09Z</time>
      </trkpt>
      <trkpt lat="45.10896" lon="4.29492">
        <ele>868</ele>
        <time>2021-06-03T07:40:11Z</time>
      </trkpt>
      <trkpt lat="45.10892" lon="4.295">
        <ele>869</ele>
        <time>2021-06-03T07:40:12Z</time>
      </trkpt>
      <trkpt lat="45.10891" lon="4.29509">
        <ele>869</ele>
        <time>2021-06-03T07:40:13Z</time>
      </trkpt>
      <trkpt lat="45.10891" lon="4.29518">
        <ele>870</ele>
        <time>2021-06-03T07:40:14Z</time>
      </trkpt>
      <trkpt lat="45.10893" lon="4.29527">
        <ele>870</ele>
        <time>2021-06-03T07:40:15Z</time>
      </trkpt>
      <trkpt lat="45.10898" lon="4.29536">
        <ele>870</ele>
        <time>2021-06-03T07:40:17Z</time>
      </trkpt>
      <trkpt lat="45.10905" lon="4.29541">
        <ele>870</ele>
        <time>2021-06-03T07:40:18Z</time>
      </trkpt>
      <trkpt lat="45.10912" lon="4.29544">
        <ele>869</ele>
        <time>2021-06-03T07:40:19Z</time>
      </trkpt>
      <trkpt lat="45.10919" lon="4.29542">
        <ele>869</ele>
        <time>2021-06-03T07:40:21Z</time>
      </trkpt>
      <trkpt lat="45.10925" lon="4.29538">
        <ele>869</ele>
        <time>2021-06-03T07:40:22Z</time>
      </trkpt>
      <trkpt lat="45.10938" lon="4.29516">
        <ele>867</ele>
        <time>2021-06-03T07:40:25Z</time>
      </trkpt>
      <trkpt lat="45.10943" lon="4.2951">
        <ele>867</ele>
        <time>2021-06-03T07:40:27Z</time>
      </trkpt>
      <trkpt lat="45.10992" lon="4.29476">
        <ele>865</ele>
        <time>2021-06-03T07:40:36Z</time>
      </trkpt>
      <trkpt lat="45.11197" lon="4.29275">
        <ele>851</ele>
        <time>2021-06-03T07:41:21Z</time>
      </trkpt>
      <trkpt lat="45.11242" lon="4.29233">
        <ele>849</ele>
        <time>2021-06-03T07:41:30Z</time>
      </trkpt>
      <trkpt lat="45.11278" lon="4.29196">
        <ele>848</ele>
        <time>2021-06-03T07:41:38Z</time>
      </trkpt>
      <trkpt lat="45.11293" lon="4.29182">
        <ele>848</ele>
        <time>2021-06-03T07:41:41Z</time>
      </trkpt>
      <trkpt lat="45.11308" lon="4.2927">
        <ele>847</ele>
        <time>2021-06-03T07:41:53Z</time>
      </trkpt>
      <trkpt lat="45.11311" lon="4.29293">
        <ele>847</ele>
        <time>2021-06-03T07:41:56Z</time>
      </trkpt>
      <trkpt lat="45.11314" lon="4.2931">
        <ele>847</ele>
        <time>2021-06-03T07:41:58Z</time>
      </trkpt>
      <trkpt lat="45.11367" lon="4.29362">
        <ele>848</ele>
        <time>2021-06-03T07:42:09Z</time>
      </trkpt>
      <trkpt lat="45.11391" lon="4.29389">
        <ele>849</ele>
        <time>2021-06-03T07:42:15Z</time>
      </trkpt>
      <trkpt lat="45.11427" lon="4.29423">
        <ele>850</ele>
        <time>2021-06-03T07:42:22Z</time>
      </trkpt>
      <trkpt lat="45.1143" lon="4.29385">
        <ele>850</ele>
        <time>2021-06-03T07:42:27Z</time>
      </trkpt>
      <trkpt lat="45.11434" lon="4.2932">
        <ele>848</ele>
        <time>2021-06-03T07:42:35Z</time>
      </trkpt>
      <trkpt lat="45.11435" lon="4.29308">
        <ele>848</ele>
        <time>2021-06-03T07:42:37Z</time>
      </trkpt>
      <trkpt lat="45.11436" lon="4.29282">
        <ele>848</ele>
        <time>2021-06-03T07:42:40Z</time>
      </trkpt>
      <trkpt lat="45.11439" lon="4.2923">
        <ele>847</ele>
        <time>2021-06-03T07:42:47Z</time>
      </trkpt>
      <trkpt lat="45.11442" lon="4.29174">
        <ele>846</ele>
        <time>2021-06-03T07:42:54Z</time>
      </trkpt>
      <trkpt lat="45.11443" lon="4.29167">
        <ele>846</ele>
        <time>2021-06-03T07:42:55Z</time>
      </trkpt>
      <trkpt lat="45.11443" lon="4.29158">
        <ele>846</ele>
        <time>2021-06-03T07:42:56Z</time>
      </trkpt>
      <trkpt lat="45.11445" lon="4.29129">
        <ele>847</ele>
        <time>2021-06-03T07:43:00Z</time>
      </trkpt>
      <trkpt lat="45.11448" lon="4.29059">
        <ele>849</ele>
        <time>2021-06-03T07:43:08Z</time>
      </trkpt>
      <trkpt lat="45.11448" lon="4.29045">
        <ele>849</ele>
        <time>2021-06-03T07:43:10Z</time>
      </trkpt>
      <trkpt lat="45.11464" lon="4.29047">
        <ele>849</ele>
        <time>2021-06-03T07:43:13Z</time>
      </trkpt>
      <trkpt lat="45.11477" lon="4.29052">
        <ele>849</ele>
        <time>2021-06-03T07:43:15Z</time>
      </trkpt>
      <trkpt lat="45.11491" lon="4.29063">
        <ele>849</ele>
        <time>2021-06-03T07:43:18Z</time>
      </trkpt>
      <trkpt lat="45.11506" lon="4.29058">
        <ele>850</ele>
        <time>2021-06-03T07:43:21Z</time>
      </trkpt>
      <trkpt lat="45.11532" lon="4.29057">
        <ele>850</ele>
        <time>2021-06-03T07:43:26Z</time>
      </trkpt>
      <trkpt lat="45.11535" lon="4.2905">
        <ele>850</ele>
        <time>2021-06-03T07:43:27Z</time>
      </trkpt>
      <trkpt lat="45.11537" lon="4.29032">
        <ele>851</ele>
        <time>2021-06-03T07:43:29Z</time>
      </trkpt>
      <trkpt lat="45.11546" lon="4.2901">
        <ele>852</ele>
        <time>2021-06-03T07:43:32Z</time>
      </trkpt>
      <trkpt lat="45.11559" lon="4.29002">
        <ele>853</ele>
        <time>2021-06-03T07:43:35Z</time>
      </trkpt>
      <trkpt lat="45.11581" lon="4.2895">
        <ele>851</ele>
        <time>2021-06-03T07:43:42Z</time>
      </trkpt>
      <trkpt lat="45.11626" lon="4.28858">
        <ele>844</ele>
        <time>2021-06-03T07:43:56Z</time>
      </trkpt>
      <trkpt lat="45.11637" lon="4.2884">
        <ele>844</ele>
        <time>2021-06-03T07:43:59Z</time>
      </trkpt>
      <trkpt lat="45.11642" lon="4.28836">
        <ele>844</ele>
        <time>2021-06-03T07:44:00Z</time>
      </trkpt>
      <trkpt lat="45.11656" lon="4.28836">
        <ele>844</ele>
        <time>2021-06-03T07:44:03Z</time>
      </trkpt>
      <trkpt lat="45.11771" lon="4.28893">
        <ele>836</ele>
        <time>2021-06-03T07:44:24Z</time>
      </trkpt>
      <trkpt lat="45.11808" lon="4.2883">
        <ele>835</ele>
        <time>2021-06-03T07:44:35Z</time>
      </trkpt>
      <trkpt lat="45.11837" lon="4.28845">
        <ele>834</ele>
        <time>2021-06-03T07:44:40Z</time>
      </trkpt>
      <trkpt lat="45.11867" lon="4.28861">
        <ele>834</ele>
        <time>2021-06-03T07:44:46Z</time>
      </trkpt>
      <trkpt lat="45.11943" lon="4.289">
        <ele>836</ele>
        <time>2021-06-03T07:45:00Z</time>
      </trkpt>
      <trkpt lat="45.11983" lon="4.28914">
        <ele>839</ele>
        <time>2021-06-03T07:45:08Z</time>
      </trkpt>
      <trkpt lat="45.12015" lon="4.28917">
        <ele>841</ele>
        <time>2021-06-03T07:45:13Z</time>
      </trkpt>
      <trkpt lat="45.12029" lon="4.28916">
        <ele>841</ele>
        <time>2021-06-03T07:45:16Z</time>
      </trkpt>
      <trkpt lat="45.12055" lon="4.28911">
        <ele>842</ele>
        <time>2021-06-03T07:45:20Z</time>
      </trkpt>
      <trkpt lat="45.12103" lon="4.28891">
        <ele>847</ele>
        <time>2021-06-03T07:45:29Z</time>
      </trkpt>
      <trkpt lat="45.12232" lon="4.28824">
        <ele>861</ele>
        <time>2021-06-03T07:45:54Z</time>
      </trkpt>
      <trkpt lat="45.12247" lon="4.28819">
        <ele>862</ele>
        <time>2021-06-03T07:45:57Z</time>
      </trkpt>
      <trkpt lat="45.1226" lon="4.28817">
        <ele>863</ele>
        <time>2021-06-03T07:45:59Z</time>
      </trkpt>
      <trkpt lat="45.1229" lon="4.2882">
        <ele>866</ele>
        <time>2021-06-03T07:46:04Z</time>
      </trkpt>
      <trkpt lat="45.12305" lon="4.28825">
        <ele>867</ele>
        <time>2021-06-03T07:46:07Z</time>
      </trkpt>
      <trkpt lat="45.12322" lon="4.28834">
        <ele>869</ele>
        <time>2021-06-03T07:46:10Z</time>
      </trkpt>
      <trkpt lat="45.12397" lon="4.28882">
        <ele>873</ele>
        <time>2021-06-03T07:46:25Z</time>
      </trkpt>
      <trkpt lat="45.12442" lon="4.28909">
        <ele>874</ele>
        <time>2021-06-03T07:46:34Z</time>
      </trkpt>
      <trkpt lat="45.12575" lon="4.28973">
        <ele>876</ele>
        <time>2021-06-03T07:46:59Z</time>
      </trkpt>
      <trkpt lat="45.12614" lon="4.28997">
        <ele>877</ele>
        <time>2021-06-03T07:47:06Z</time>
      </trkpt>
      <trkpt lat="45.12901" lon="4.29271">
        <ele>907</ele>
        <time>2021-06-03T07:48:08Z</time>
      </trkpt>
      <trkpt lat="45.12981" lon="4.29321">
        <ele>902</ele>
        <time>2021-06-03T07:48:23Z</time>
      </trkpt>
      <trkpt lat="45.13028" lon="4.2934">
        <ele>895</ele>
        <time>2021-06-03T07:48:32Z</time>
      </trkpt>
      <trkpt lat="45.13079" lon="4.29355">
        <ele>889</ele>
        <time>2021-06-03T07:48:41Z</time>
      </trkpt>
      <trkpt lat="45.13103" lon="4.29359">
        <ele>887</ele>
        <time>2021-06-03T07:48:46Z</time>
      </trkpt>
      <trkpt lat="45.13143" lon="4.29362">
        <ele>883</ele>
        <time>2021-06-03T07:48:53Z</time>
      </trkpt>
      <trkpt lat="45.13332" lon="4.29373">
        <ele>885</ele>
        <time>2021-06-03T07:49:26Z</time>
      </trkpt>
      <trkpt lat="45.13408" lon="4.29386">
        <ele>886</ele>
        <time>2021-06-03T07:49:40Z</time>
      </trkpt>
      <trkpt lat="45.13434" lon="4.29393">
        <ele>884</ele>
        <time>2021-06-03T07:49:45Z</time>
      </trkpt>
      <trkpt lat="45.13505" lon="4.29418">
        <ele>873</ele>
        <time>2021-06-03T07:49:58Z</time>
      </trkpt>
      <trkpt lat="45.1353" lon="4.29423">
        <ele>872</ele>
        <time>2021-06-03T07:50:02Z</time>
      </trkpt>
      <trkpt lat="45.13613" lon="4.29432">
        <ele>868</ele>
        <time>2021-06-03T07:50:17Z</time>
      </trkpt>
      <trkpt lat="45.13655" lon="4.29448">
        <ele>868</ele>
        <time>2021-06-03T07:50:25Z</time>
      </trkpt>
      <trkpt lat="45.1372" lon="4.29492">
        <ele>863</ele>
        <time>2021-06-03T07:50:37Z</time>
      </trkpt>
      <trkpt lat="45.13739" lon="4.295">
        <ele>860</ele>
        <time>2021-06-03T07:50:41Z</time>
      </trkpt>
      <trkpt lat="45.13768" lon="4.29505">
        <ele>858</ele>
        <time>2021-06-03T07:50:46Z</time>
      </trkpt>
      <trkpt lat="45.13786" lon="4.29504">
        <ele>858</ele>
        <time>2021-06-03T07:50:49Z</time>
      </trkpt>
      <trkpt lat="45.13805" lon="4.29499">
        <ele>857</ele>
        <time>2021-06-03T07:50:53Z</time>
      </trkpt>
      <trkpt lat="45.13862" lon="4.29479">
        <ele>855</ele>
        <time>2021-06-03T07:51:03Z</time>
      </trkpt>
      <trkpt lat="45.13887" lon="4.29476">
        <ele>855</ele>
        <time>2021-06-03T07:51:08Z</time>
      </trkpt>
      <trkpt lat="45.14007" lon="4.29495">
        <ele>859</ele>
        <time>2021-06-03T07:51:29Z</time>
      </trkpt>
      <trkpt lat="45.14027" lon="4.29495">
        <ele>861</ele>
        <time>2021-06-03T07:51:33Z</time>
      </trkpt>
      <trkpt lat="45.14046" lon="4.29493">
        <ele>862</ele>
        <time>2021-06-03T07:51:36Z</time>
      </trkpt>
      <trkpt lat="45.14071" lon="4.29482">
        <ele>863</ele>
        <time>2021-06-03T07:51:41Z</time>
      </trkpt>
      <trkpt lat="45.14083" lon="4.29473">
        <ele>863</ele>
        <time>2021-06-03T07:51:43Z</time>
      </trkpt>
      <trkpt lat="45.14107" lon="4.29452">
        <ele>861</ele>
        <time>2021-06-03T07:51:48Z</time>
      </trkpt>
      <trkpt lat="45.14148" lon="4.29409">
        <ele>859</ele>
        <time>2021-06-03T07:51:57Z</time>
      </trkpt>
      <trkpt lat="45.14168" lon="4.29388">
        <ele>861</ele>
        <time>2021-06-03T07:52:02Z</time>
      </trkpt>
      <trkpt lat="45.14187" lon="4.2937">
        <ele>862</ele>
        <time>2021-06-03T07:52:06Z</time>
      </trkpt>
      <trkpt lat="45.142" lon="4.29361">
        <ele>862</ele>
        <time>2021-06-03T07:52:08Z</time>
      </trkpt>
      <trkpt lat="45.14227" lon="4.29355">
        <ele>863</ele>
        <time>2021-06-03T07:52:13Z</time>
      </trkpt>
      <trkpt lat="45.14242" lon="4.29355">
        <ele>862</ele>
        <time>2021-06-03T07:52:16Z</time>
      </trkpt>
      <trkpt lat="45.14262" lon="4.29358">
        <ele>862</ele>
        <time>2021-06-03T07:52:20Z</time>
      </trkpt>
      <trkpt lat="45.14405" lon="4.29399">
        <ele>864</ele>
        <time>2021-06-03T07:52:46Z</time>
      </trkpt>
      <trkpt lat="45.14425" lon="4.29406">
        <ele>864</ele>
        <time>2021-06-03T07:52:49Z</time>
      </trkpt>
      <trkpt lat="45.14441" lon="4.29409">
        <ele>864</ele>
        <time>2021-06-03T07:52:52Z</time>
      </trkpt>
      <trkpt lat="45.14475" lon="4.29407">
        <ele>865</ele>
        <time>2021-06-03T07:52:58Z</time>
      </trkpt>
      <trkpt lat="45.14492" lon="4.29402">
        <ele>865</ele>
        <time>2021-06-03T07:53:01Z</time>
      </trkpt>
      <trkpt lat="45.1458" lon="4.29357">
        <ele>866</ele>
        <time>2021-06-03T07:53:18Z</time>
      </trkpt>
      <trkpt lat="45.14606" lon="4.29351">
        <ele>868</ele>
        <time>2021-06-03T07:53:23Z</time>
      </trkpt>
      <trkpt lat="45.14638" lon="4.29353">
        <ele>870</ele>
        <time>2021-06-03T07:53:28Z</time>
      </trkpt>
      <trkpt lat="45.1466" lon="4.29358">
        <ele>872</ele>
        <time>2021-06-03T07:53:32Z</time>
      </trkpt>
      <trkpt lat="45.14716" lon="4.29378">
        <ele>876</ele>
        <time>2021-06-03T07:53:42Z</time>
      </trkpt>
      <trkpt lat="45.14732" lon="4.29383">
        <ele>878</ele>
        <time>2021-06-03T07:53:45Z</time>
      </trkpt>
      <trkpt lat="45.14745" lon="4.29385">
        <ele>879</ele>
        <time>2021-06-03T07:53:48Z</time>
      </trkpt>
      <trkpt lat="45.14762" lon="4.29385">
        <ele>879</ele>
        <time>2021-06-03T07:53:51Z</time>
      </trkpt>
      <trkpt lat="45.14792" lon="4.29378">
        <ele>880</ele>
        <time>2021-06-03T07:53:56Z</time>
      </trkpt>
      <trkpt lat="45.14884" lon="4.2935">
        <ele>885</ele>
        <time>2021-06-03T07:54:13Z</time>
      </trkpt>
      <trkpt lat="45.1491" lon="4.29345">
        <ele>886</ele>
        <time>2021-06-03T07:54:18Z</time>
      </trkpt>
      <trkpt lat="45.14941" lon="4.2934">
        <ele>889</ele>
        <time>2021-06-03T07:54:23Z</time>
      </trkpt>
      <trkpt lat="45.1497" lon="4.29337">
        <ele>891</ele>
        <time>2021-06-03T07:54:28Z</time>
      </trkpt>
      <trkpt lat="45.14992" lon="4.29334">
        <ele>892</ele>
        <time>2021-06-03T07:54:32Z</time>
      </trkpt>
      <trkpt lat="45.15004" lon="4.29334">
        <ele>893</ele>
        <time>2021-06-03T07:54:34Z</time>
      </trkpt>
      <trkpt lat="45.15024" lon="4.29337">
        <ele>895</ele>
        <time>2021-06-03T07:54:38Z</time>
      </trkpt>
      <trkpt lat="45.15041" lon="4.29344">
        <ele>896</ele>
        <time>2021-06-03T07:54:41Z</time>
      </trkpt>
      <trkpt lat="45.15054" lon="4.29351">
        <ele>897</ele>
        <time>2021-06-03T07:54:44Z</time>
      </trkpt>
      <trkpt lat="45.15068" lon="4.29362">
        <ele>898</ele>
        <time>2021-06-03T07:54:46Z</time>
      </trkpt>
      <trkpt lat="45.15092" lon="4.29384">
        <ele>900</ele>
        <time>2021-06-03T07:54:51Z</time>
      </trkpt>
      <trkpt lat="45.15104" lon="4.29399">
        <ele>901</ele>
        <time>2021-06-03T07:54:54Z</time>
      </trkpt>
      <trkpt lat="45.15114" lon="4.29414">
        <ele>901</ele>
        <time>2021-06-03T07:54:57Z</time>
      </trkpt>
      <trkpt lat="45.15128" lon="4.29443">
        <ele>900</ele>
        <time>2021-06-03T07:55:01Z</time>
      </trkpt>
      <trkpt lat="45.15163" lon="4.29536">
        <ele>891</ele>
        <time>2021-06-03T07:55:15Z</time>
      </trkpt>
      <trkpt lat="45.15206" lon="4.29665">
        <ele>885</ele>
        <time>2021-06-03T07:55:32Z</time>
      </trkpt>
      <trkpt lat="45.15216" lon="4.2969">
        <ele>885</ele>
        <time>2021-06-03T07:55:36Z</time>
      </trkpt>
      <trkpt lat="45.15234" lon="4.29724">
        <ele>886</ele>
        <time>2021-06-03T07:55:41Z</time>
      </trkpt>
      <trkpt lat="45.15245" lon="4.2974">
        <ele>886</ele>
        <time>2021-06-03T07:55:44Z</time>
      </trkpt>
      <trkpt lat="45.15262" lon="4.29755">
        <ele>885</ele>
        <time>2021-06-03T07:55:48Z</time>
      </trkpt>
      <trkpt lat="45.15325" lon="4.29804">
        <ele>886</ele>
        <time>2021-06-03T07:56:01Z</time>
      </trkpt>
      <trkpt lat="45.15346" lon="4.29824">
        <ele>886</ele>
        <time>2021-06-03T07:56:05Z</time>
      </trkpt>
      <trkpt lat="45.1535" lon="4.29829">
        <ele>886</ele>
        <time>2021-06-03T07:56:06Z</time>
      </trkpt>
      <trkpt lat="45.15355" lon="4.29834">
        <ele>885</ele>
        <time>2021-06-03T07:56:07Z</time>
      </trkpt>
      <trkpt lat="45.15363" lon="4.29845">
        <ele>884</ele>
        <time>2021-06-03T07:56:09Z</time>
      </trkpt>
      <trkpt lat="45.15383" lon="4.29886">
        <ele>884</ele>
        <time>2021-06-03T07:56:15Z</time>
      </trkpt>
      <trkpt lat="45.15389" lon="4.29898">
        <ele>884</ele>
        <time>2021-06-03T07:56:17Z</time>
      </trkpt>
      <trkpt lat="45.15416" lon="4.29991">
        <ele>886</ele>
        <time>2021-06-03T07:56:30Z</time>
      </trkpt>
      <trkpt lat="45.15437" lon="4.30042">
        <ele>884</ele>
        <time>2021-06-03T07:56:37Z</time>
      </trkpt>
      <trkpt lat="45.15466" lon="4.30091">
        <ele>885</ele>
        <time>2021-06-03T07:56:45Z</time>
      </trkpt>
      <trkpt lat="45.1548" lon="4.30111">
        <ele>885</ele>
        <time>2021-06-03T07:56:49Z</time>
      </trkpt>
      <trkpt lat="45.15496" lon="4.30129">
        <ele>885</ele>
        <time>2021-06-03T07:56:52Z</time>
      </trkpt>
      <trkpt lat="45.15516" lon="4.30149">
        <ele>887</ele>
        <time>2021-06-03T07:56:57Z</time>
      </trkpt>
      <trkpt lat="45.15537" lon="4.30166">
        <ele>888</ele>
        <time>2021-06-03T07:57:01Z</time>
      </trkpt>
      <trkpt lat="45.15576" lon="4.30186">
        <ele>890</ele>
        <time>2021-06-03T07:57:08Z</time>
      </trkpt>
      <trkpt lat="45.15861" lon="4.30291">
        <ele>900</ele>
        <time>2021-06-03T07:58:01Z</time>
      </trkpt>
      <trkpt lat="45.15917" lon="4.30314">
        <ele>903</ele>
        <time>2021-06-03T07:58:11Z</time>
      </trkpt>
      <trkpt lat="45.15939" lon="4.30325">
        <ele>904</ele>
        <time>2021-06-03T07:58:15Z</time>
      </trkpt>
      <trkpt lat="45.1596" lon="4.30339">
        <ele>906</ele>
        <time>2021-06-03T07:58:19Z</time>
      </trkpt>
      <trkpt lat="45.15984" lon="4.30358">
        <ele>908</ele>
        <time>2021-06-03T07:58:24Z</time>
      </trkpt>
      <trkpt lat="45.16006" lon="4.30381">
        <ele>910</ele>
        <time>2021-06-03T07:58:29Z</time>
      </trkpt>
      <trkpt lat="45.16029" lon="4.30409">
        <ele>911</ele>
        <time>2021-06-03T07:58:35Z</time>
      </trkpt>
      <trkpt lat="45.16037" lon="4.30422">
        <ele>911</ele>
        <time>2021-06-03T07:58:37Z</time>
      </trkpt>
      <trkpt lat="45.16055" lon="4.3045">
        <ele>912</ele>
        <time>2021-06-03T07:58:42Z</time>
      </trkpt>
      <trkpt lat="45.16059" lon="4.30458">
        <ele>911</ele>
        <time>2021-06-03T07:58:43Z</time>
      </trkpt>
      <trkpt lat="45.16065" lon="4.30473">
        <ele>911</ele>
        <time>2021-06-03T07:58:45Z</time>
      </trkpt>
      <trkpt lat="45.1607" lon="4.30487">
        <ele>911</ele>
        <time>2021-06-03T07:58:47Z</time>
      </trkpt>
      <trkpt lat="45.16074" lon="4.30498">
        <ele>910</ele>
        <time>2021-06-03T07:58:48Z</time>
      </trkpt>
      <trkpt lat="45.16078" lon="4.30511">
        <ele>910</ele>
        <time>2021-06-03T07:58:50Z</time>
      </trkpt>
      <trkpt lat="45.16086" lon="4.30542">
        <ele>909</ele>
        <time>2021-06-03T07:58:54Z</time>
      </trkpt>
      <trkpt lat="45.1611" lon="4.30628">
        <ele>909</ele>
        <time>2021-06-03T07:59:06Z</time>
      </trkpt>
      <trkpt lat="45.16134" lon="4.30725">
        <ele>909</ele>
        <time>2021-06-03T07:59:19Z</time>
      </trkpt>
      <trkpt lat="45.16146" lon="4.3077">
        <ele>910</ele>
        <time>2021-06-03T07:59:25Z</time>
      </trkpt>
      <trkpt lat="45.16167" lon="4.30834">
        <ele>911</ele>
        <time>2021-06-03T07:59:34Z</time>
      </trkpt>
      <trkpt lat="45.1619" lon="4.30898">
        <ele>910</ele>
        <time>2021-06-03T07:59:43Z</time>
      </trkpt>
      <trkpt lat="45.1621" lon="4.30942">
        <ele>911</ele>
        <time>2021-06-03T07:59:49Z</time>
      </trkpt>
      <trkpt lat="45.16224" lon="4.30965">
        <ele>912</ele>
        <time>2021-06-03T07:59:53Z</time>
      </trkpt>
      <trkpt lat="45.16254" lon="4.31005">
        <ele>914</ele>
        <time>2021-06-03T08:00:00Z</time>
      </trkpt>
      <trkpt lat="45.16289" lon="4.31041">
        <ele>917</ele>
        <time>2021-06-03T08:00:08Z</time>
      </trkpt>
      <trkpt lat="45.16297" lon="4.31046">
        <ele>917</ele>
        <time>2021-06-03T08:00:10Z</time>
      </trkpt>
      <trkpt lat="45.16317" lon="4.3106">
        <ele>917</ele>
        <time>2021-06-03T08:00:14Z</time>
      </trkpt>
      <trkpt lat="45.16336" lon="4.31071">
        <ele>917</ele>
        <time>2021-06-03T08:00:17Z</time>
      </trkpt>
      <trkpt lat="45.16351" lon="4.31078">
        <ele>917</ele>
        <time>2021-06-03T08:00:20Z</time>
      </trkpt>
      <trkpt lat="45.16361" lon="4.31083">
        <ele>917</ele>
        <time>2021-06-03T08:00:22Z</time>
      </trkpt>
      <trkpt lat="45.16428" lon="4.31113">
        <ele>914</ele>
        <time>2021-06-03T08:00:35Z</time>
      </trkpt>
      <trkpt lat="45.16473" lon="4.31137">
        <ele>909</ele>
        <time>2021-06-03T08:00:43Z</time>
      </trkpt>
      <trkpt lat="45.16488" lon="4.31145">
        <ele>907</ele>
        <time>2021-06-03T08:00:46Z</time>
      </trkpt>
      <trkpt lat="45.1652" lon="4.31163">
        <ele>904</ele>
        <time>2021-06-03T08:00:52Z</time>
      </trkpt>
      <trkpt lat="45.16562" lon="4.31193">
        <ele>902</ele>
        <time>2021-06-03T08:01:00Z</time>
      </trkpt>
      <trkpt lat="45.16664" lon="4.31259">
        <ele>909</ele>
        <time>2021-06-03T08:01:20Z</time>
      </trkpt>
      <trkpt lat="45.16764" lon="4.31328">
        <ele>912</ele>
        <time>2021-06-03T08:01:40Z</time>
      </trkpt>
      <trkpt lat="45.16935" lon="4.31443">
        <ele>891</ele>
        <time>2021-06-03T08:02:14Z</time>
      </trkpt>
      <trkpt lat="45.16958" lon="4.31456">
        <ele>890</ele>
        <time>2021-06-03T08:02:18Z</time>
      </trkpt>
      <trkpt lat="45.16975" lon="4.31463">
        <ele>890</ele>
        <time>2021-06-03T08:02:21Z</time>
      </trkpt>
      <trkpt lat="45.16994" lon="4.31467">
        <ele>890</ele>
        <time>2021-06-03T08:02:25Z</time>
      </trkpt>
      <trkpt lat="45.17011" lon="4.31467">
        <ele>891</ele>
        <time>2021-06-03T08:02:28Z</time>
      </trkpt>
      <trkpt lat="45.17042" lon="4.31462">
        <ele>893</ele>
        <time>2021-06-03T08:02:33Z</time>
      </trkpt>
      <trkpt lat="45.1707" lon="4.3145">
        <ele>894</ele>
        <time>2021-06-03T08:02:39Z</time>
      </trkpt>
      <trkpt lat="45.17084" lon="4.31439">
        <ele>894</ele>
        <time>2021-06-03T08:02:41Z</time>
      </trkpt>
      <trkpt lat="45.17107" lon="4.31418">
        <ele>897</ele>
        <time>2021-06-03T08:02:46Z</time>
      </trkpt>
      <trkpt lat="45.17114" lon="4.31409">
        <ele>897</ele>
        <time>2021-06-03T08:02:48Z</time>
      </trkpt>
      <trkpt lat="45.17201" lon="4.31295">
        <ele>897</ele>
        <time>2021-06-03T08:03:09Z</time>
      </trkpt>
      <trkpt lat="45.17233" lon="4.31258">
        <ele>898</ele>
        <time>2021-06-03T08:03:16Z</time>
      </trkpt>
      <trkpt lat="45.17308" lon="4.31199">
        <ele>897</ele>
        <time>2021-06-03T08:03:32Z</time>
      </trkpt>
      <trkpt lat="45.1735" lon="4.31177">
        <ele>898</ele>
        <time>2021-06-03T08:03:40Z</time>
      </trkpt>
      <trkpt lat="45.17369" lon="4.31169">
        <ele>898</ele>
        <time>2021-06-03T08:03:43Z</time>
      </trkpt>
      <trkpt lat="45.17376" lon="4.31166">
        <ele>897</ele>
        <time>2021-06-03T08:03:44Z</time>
      </trkpt>
      <trkpt lat="45.17383" lon="4.31164">
        <ele>897</ele>
        <time>2021-06-03T08:03:46Z</time>
      </trkpt>
      <trkpt lat="45.17419" lon="4.31152">
        <ele>897</ele>
        <time>2021-06-03T08:03:52Z</time>
      </trkpt>
      <trkpt lat="45.17471" lon="4.31135">
        <ele>898</ele>
        <time>2021-06-03T08:04:02Z</time>
      </trkpt>
      <trkpt lat="45.17495" lon="4.31129">
        <ele>898</ele>
        <time>2021-06-03T08:04:06Z</time>
      </trkpt>
      <trkpt lat="45.17484" lon="4.31155">
        <ele>900</ele>
        <time>2021-06-03T08:04:10Z</time>
      </trkpt>
      <trkpt lat="45.17495" lon="4.31129">
        <ele>898</ele>
        <time>2021-06-03T08:04:14Z</time>
      </trkpt>
      <trkpt lat="45.17521" lon="4.31126">
        <ele>897</ele>
        <time>2021-06-03T08:04:18Z</time>
      </trkpt>
      <trkpt lat="45.17548" lon="4.31128">
        <ele>896</ele>
        <time>2021-06-03T08:04:23Z</time>
      </trkpt>
      <trkpt lat="45.17575" lon="4.31137">
        <ele>895</ele>
        <time>2021-06-03T08:04:28Z</time>
      </trkpt>
      <trkpt lat="45.17589" lon="4.31145">
        <ele>896</ele>
        <time>2021-06-03T08:04:31Z</time>
      </trkpt>
      <trkpt lat="45.17619" lon="4.31168">
        <ele>897</ele>
        <time>2021-06-03T08:04:37Z</time>
      </trkpt>
      <trkpt lat="45.17636" lon="4.31185">
        <ele>898</ele>
        <time>2021-06-03T08:04:41Z</time>
      </trkpt>
      <trkpt lat="45.177" lon="4.31263">
        <ele>900</ele>
        <time>2021-06-03T08:04:56Z</time>
      </trkpt>
      <trkpt lat="45.17722" lon="4.31282">
        <ele>902</ele>
        <time>2021-06-03T08:05:00Z</time>
      </trkpt>
      <trkpt lat="45.17744" lon="4.31294">
        <ele>905</ele>
        <time>2021-06-03T08:05:04Z</time>
      </trkpt>
      <trkpt lat="45.17766" lon="4.31299">
        <ele>906</ele>
        <time>2021-06-03T08:05:08Z</time>
      </trkpt>
      <trkpt lat="45.17822" lon="4.31306">
        <ele>907</ele>
        <time>2021-06-03T08:05:18Z</time>
      </trkpt>
      <trkpt lat="45.17842" lon="4.31311">
        <ele>907</ele>
        <time>2021-06-03T08:05:22Z</time>
      </trkpt>
      <trkpt lat="45.17872" lon="4.31327">
        <ele>905</ele>
        <time>2021-06-03T08:05:28Z</time>
      </trkpt>
      <trkpt lat="45.17901" lon="4.31351">
        <ele>905</ele>
        <time>2021-06-03T08:05:34Z</time>
      </trkpt>
      <trkpt lat="45.17934" lon="4.31388">
        <ele>906</ele>
        <time>2021-06-03T08:05:41Z</time>
      </trkpt>
      <trkpt lat="45.17961" lon="4.31413">
        <ele>906</ele>
        <time>2021-06-03T08:05:47Z</time>
      </trkpt>
      <trkpt lat="45.17986" lon="4.31427">
        <ele>905</ele>
        <time>2021-06-03T08:05:52Z</time>
      </trkpt>
      <trkpt lat="45.18" lon="4.31432">
        <ele>905</ele>
        <time>2021-06-03T08:05:54Z</time>
      </trkpt>
      <trkpt lat="45.18022" lon="4.31434">
        <ele>905</ele>
        <time>2021-06-03T08:05:58Z</time>
      </trkpt>
      <trkpt lat="45.18402" lon="4.31409">
        <ele>911</ele>
        <time>2021-06-03T08:07:06Z</time>
      </trkpt>
      <trkpt lat="45.18419" lon="4.31401">
        <ele>911</ele>
        <time>2021-06-03T08:07:09Z</time>
      </trkpt>
      <trkpt lat="45.18432" lon="4.31386">
        <ele>912</ele>
        <time>2021-06-03T08:07:12Z</time>
      </trkpt>
      <trkpt lat="45.1847" lon="4.31335">
        <ele>914</ele>
        <time>2021-06-03T08:07:21Z</time>
      </trkpt>
      <trkpt lat="45.18484" lon="4.31323">
        <ele>916</ele>
        <time>2021-06-03T08:07:24Z</time>
      </trkpt>
      <trkpt lat="45.18513" lon="4.31405">
        <ele>916</ele>
        <time>2021-06-03T08:07:36Z</time>
      </trkpt>
    </trkseg>
  </trk>
</gpx>